<?xml version='1.0' encoding='UTF-8'?>
<gpx xmlns="http://www.topografix.com/GPX/1/1" creator="www.balnam.be" version="1.1" xmlns:xsi="http://www.w3.org/2001/XMLSchema-instance" xsi:schemaLocation="http://www.topografix.com/GPX/1/1 http://www.topografix.com/GPX/1/1/gpx.xsd">
<trk>
<name>bwvlm1</name>
<cmt>v</cmt>
<desc>Limal Chemin n°1 Avenue du Guéret / Chemin de la Justice</desc>
<link href="https://chemins.be/limal/chemin/1"/><trkseg>
<trkpt lat="50.705351" lon="4.552954"><time>2026-05-08T03:59:47Z</time></trkpt>
<trkpt lat="50.705840" lon="4.553641"><time>2026-05-08T04:09:47Z</time></trkpt>
</trkseg></trk>
<trk>
<name>bwvlm1</name>
<cmt>r</cmt>
<desc>Limal Chemin n°1 Avenue du Guéret / Chemin de la Justice</desc>
<link href="https://chemins.be/limal/chemin/1"/><trkseg>
<trkpt lat="50.705840" lon="4.553641"><time>2026-05-08T04:09:47Z</time></trkpt>
<trkpt lat="50.706602" lon="4.555837"><time>2026-05-08T04:19:47Z</time></trkpt>
</trkseg></trk>
<trk>
<name>bwvlm1</name>
<cmt>v</cmt>
<desc>Limal Chemin n°1 Avenue du Guéret / Chemin de la Justice</desc>
<link href="https://chemins.be/limal/chemin/1"/><trkseg>
<trkpt lat="50.706602" lon="4.555837"><time>2026-05-08T04:19:47Z</time></trkpt>
<trkpt lat="50.707210" lon="4.558133"><time>2026-05-08T04:29:47Z</time></trkpt>
<trkpt lat="50.708645" lon="4.562076"><time>2026-05-08T04:39:47Z</time></trkpt>
<trkpt lat="50.710543" lon="4.564815"><time>2026-05-08T04:49:47Z</time></trkpt>
</trkseg>
</trk>
<trk>
<name>bwvlm11</name>
<cmt>v</cmt>
<desc>Limal Chemin n°11 Chemin du Seucha</desc>
<link href="https://chemins.be/limal/chemin/11"/><trkseg>
<trkpt lat="50.698307" lon="4.554586"><time>2026-05-08T03:59:47Z</time></trkpt>
<trkpt lat="50.699377" lon="4.554307"><time>2026-05-08T04:09:47Z</time></trkpt>
<trkpt lat="50.699879" lon="4.554989"><time>2026-05-08T04:19:47Z</time></trkpt>
<trkpt lat="50.700445" lon="4.555387"><time>2026-05-08T04:29:47Z</time></trkpt>
<trkpt lat="50.700517" lon="4.555501"><time>2026-05-08T04:39:47Z</time></trkpt>
<trkpt lat="50.700607" lon="4.555530"><time>2026-05-08T04:49:47Z</time></trkpt>
<trkpt lat="50.701586" lon="4.555958"><time>2026-05-08T04:59:47Z</time></trkpt>
</trkseg></trk>
<trk>
<name>bwvlm11</name>
<cmt>r</cmt>
<desc>Limal Chemin n°11 Chemin du Seucha</desc>
<link href="https://chemins.be/limal/chemin/11"/><trkseg>
<trkpt lat="50.701586" lon="4.555958"><time>2026-05-08T04:59:47Z</time></trkpt>
<trkpt lat="50.701918" lon="4.556228"><time>2026-05-08T05:09:47Z</time></trkpt>
<trkpt lat="50.702214" lon="4.556838"><time>2026-05-08T05:19:47Z</time></trkpt>
</trkseg>
</trk>
<trk>
<name>bwvlm12</name>
<cmt>r</cmt>
<desc>Limal Chemin n°12 Rue des Jardins</desc>
<link href="https://chemins.be/limal/chemin/12"/><trkseg>
<trkpt lat="50.695548" lon="4.547881"><time>2026-05-08T03:59:47Z</time></trkpt>
<trkpt lat="50.695731" lon="4.546254"><time>2026-05-08T04:09:47Z</time></trkpt>
<trkpt lat="50.696344" lon="4.544756"><time>2026-05-08T04:19:47Z</time></trkpt>
<trkpt lat="50.696573" lon="4.542195"><time>2026-05-08T04:29:47Z</time></trkpt>
<trkpt lat="50.695481" lon="4.539133"><time>2026-05-08T04:39:47Z</time></trkpt>
</trkseg></trk>
<trk>
<name>bwvlm12</name>
<cmt>v</cmt>
<desc>Limal Chemin n°12 Rue des Jardins</desc>
<link href="https://chemins.be/limal/chemin/12"/><trkseg>
<trkpt lat="50.695481" lon="4.539133"><time>2026-05-08T04:39:47Z</time></trkpt>
<trkpt lat="50.694596" lon="4.535422"><time>2026-05-08T04:49:47Z</time></trkpt>
<trkpt lat="50.694060" lon="4.533240"><time>2026-05-08T04:59:47Z</time></trkpt>
</trkseg>
</trk>
<trk>
<name>bwvlm16</name>
<cmt>v</cmt>
<desc>Limal Sentier n°16 rue Antoine André</desc>
<link href="https://chemins.be/limal/sentier/16"/><trkseg>
<trkpt lat="50.689501" lon="4.589931"><time>2026-05-08T03:59:47Z</time></trkpt>
<trkpt lat="50.689219" lon="4.590044"><time>2026-05-08T04:09:47Z</time></trkpt>
<trkpt lat="50.688797" lon="4.589821"><time>2026-05-08T04:19:47Z</time></trkpt>
<trkpt lat="50.688463" lon="4.589856"><time>2026-05-08T04:29:47Z</time></trkpt>
</trkseg></trk>
<trk>
<name>bwvlm16</name>
<cmt>r</cmt>
<desc>Limal Sentier n°16 rue Antoine André</desc>
<link href="https://chemins.be/limal/sentier/16"/><trkseg>
<trkpt lat="50.688463" lon="4.589856"><time>2026-05-08T04:29:47Z</time></trkpt>
<trkpt lat="50.687362" lon="4.590976"><time>2026-05-08T04:39:47Z</time></trkpt>
<trkpt lat="50.686427" lon="4.592645"><time>2026-05-08T04:49:47Z</time></trkpt>
</trkseg></trk>
<trk>
<name>bwvlm16</name>
<cmt>v</cmt>
<desc>Limal Sentier n°16 rue Antoine André</desc>
<link href="https://chemins.be/limal/sentier/16"/><trkseg>
<trkpt lat="50.686427" lon="4.592645"><time>2026-05-08T04:49:47Z</time></trkpt>
<trkpt lat="50.686287" lon="4.592991"><time>2026-05-08T04:59:47Z</time></trkpt>
<trkpt lat="50.685877" lon="4.592860"><time>2026-05-08T05:09:47Z</time></trkpt>
<trkpt lat="50.685930" lon="4.593765"><time>2026-05-08T05:19:47Z</time></trkpt>
</trkseg></trk>
<trk>
<name>bwvlm16</name>
<cmt>s</cmt>
<desc>Limal Sentier n°16 rue Antoine André</desc>
<link href="https://chemins.be/limal/sentier/16"/><trkseg>
<trkpt lat="50.685930" lon="4.593765"><time>2026-05-08T05:19:47Z</time></trkpt>
<trkpt lat="50.685937" lon="4.594297"><time>2026-05-08T05:29:47Z</time></trkpt>
<trkpt lat="50.685795" lon="4.594417"><time>2026-05-08T05:39:47Z</time></trkpt>
<trkpt lat="50.685491" lon="4.595469"><time>2026-05-08T05:49:47Z</time></trkpt>
</trkseg></trk>
<trk>
<name>bwvlm16</name>
<cmt>d</cmt>
<desc>Limal Sentier n°16 rue Antoine André</desc>
<link href="https://chemins.be/limal/sentier/16"/><trkseg>
<trkpt lat="50.685491" lon="4.595469"><time>2026-05-08T05:49:47Z</time></trkpt>
<trkpt lat="50.685404" lon="4.596120"><time>2026-05-08T05:59:47Z</time></trkpt>
<trkpt lat="50.684589" lon="4.597484"><time>2026-05-08T06:09:47Z</time></trkpt>
<trkpt lat="50.683860" lon="4.600171"><time>2026-05-08T06:19:47Z</time></trkpt>
<trkpt lat="50.683229" lon="4.603304"><time>2026-05-08T06:29:47Z</time></trkpt>
<trkpt lat="50.683311" lon="4.604316"><time>2026-05-08T06:39:47Z</time></trkpt>
</trkseg>
</trk>
<trk>
<name>bwvlm17</name>
<cmt>v</cmt>
<desc>Limal Chemin n°17 Chemin Fontaine del Turc / Rue Morimont / sentier de la ferme des morts / Chemin du Pirroy / Chemin des Crisnaires</desc>
<link href="https://chemins.be/limal/chemin/17"/><trkseg>
<trkpt lat="50.689787" lon="4.589211"><time>2026-05-08T03:59:47Z</time></trkpt>
<trkpt lat="50.689751" lon="4.589338"><time>2026-05-08T04:09:47Z</time></trkpt>
<trkpt lat="50.689642" lon="4.589578"><time>2026-05-08T04:19:47Z</time></trkpt>
<trkpt lat="50.689516" lon="4.589946"><time>2026-05-08T04:29:47Z</time></trkpt>
<trkpt lat="50.689668" lon="4.590428"><time>2026-05-08T04:39:47Z</time></trkpt>
<trkpt lat="50.689712" lon="4.590598"><time>2026-05-08T04:49:47Z</time></trkpt>
<trkpt lat="50.689721" lon="4.590739"><time>2026-05-08T04:59:47Z</time></trkpt>
<trkpt lat="50.689747" lon="4.591504"><time>2026-05-08T05:09:47Z</time></trkpt>
<trkpt lat="50.689746" lon="4.591985"><time>2026-05-08T05:19:47Z</time></trkpt>
<trkpt lat="50.689763" lon="4.592197"><time>2026-05-08T05:29:47Z</time></trkpt>
<trkpt lat="50.689799" lon="4.592311"><time>2026-05-08T05:39:47Z</time></trkpt>
<trkpt lat="50.689960" lon="4.592594"><time>2026-05-08T05:49:47Z</time></trkpt>
<trkpt lat="50.690014" lon="4.592680"><time>2026-05-08T05:59:47Z</time></trkpt>
<trkpt lat="50.690830" lon="4.593518"><time>2026-05-08T06:09:47Z</time></trkpt>
<trkpt lat="50.690515" lon="4.594373"><time>2026-05-08T06:19:47Z</time></trkpt>
</trkseg></trk>
<trk>
<name>bwvlm17</name>
<cmt>r</cmt>
<desc>Limal Chemin n°17 Chemin Fontaine del Turc / Rue Morimont / sentier de la ferme des morts / Chemin du Pirroy / Chemin des Crisnaires</desc>
<link href="https://chemins.be/limal/chemin/17"/><trkseg>
<trkpt lat="50.690515" lon="4.594373"><time>2026-05-08T06:19:47Z</time></trkpt>
<trkpt lat="50.691218" lon="4.593237"><time>2026-05-08T06:29:47Z</time></trkpt>
<trkpt lat="50.692647" lon="4.593187"><time>2026-05-08T06:39:47Z</time></trkpt>
<trkpt lat="50.693941" lon="4.593307"><time>2026-05-08T06:49:47Z</time></trkpt>
<trkpt lat="50.694210" lon="4.593959"><time>2026-05-08T06:59:47Z</time></trkpt>
<trkpt lat="50.694614" lon="4.594202"><time>2026-05-08T07:09:47Z</time></trkpt>
</trkseg></trk>
<trk>
<name>bwvlm17</name>
<cmt>v</cmt>
<desc>Limal Chemin n°17 Chemin Fontaine del Turc / Rue Morimont / sentier de la ferme des morts / Chemin du Pirroy / Chemin des Crisnaires</desc>
<link href="https://chemins.be/limal/chemin/17"/><trkseg>
<trkpt lat="50.694614" lon="4.594202"><time>2026-05-08T07:09:47Z</time></trkpt>
<trkpt lat="50.695466" lon="4.595253"><time>2026-05-08T07:19:47Z</time></trkpt>
<trkpt lat="50.695996" lon="4.595581"><time>2026-05-08T07:29:47Z</time></trkpt>
<trkpt lat="50.696964" lon="4.597086"><time>2026-05-08T07:39:47Z</time></trkpt>
<trkpt lat="50.697223" lon="4.597993"><time>2026-05-08T07:49:47Z</time></trkpt>
<trkpt lat="50.697328" lon="4.599225"><time>2026-05-08T07:59:47Z</time></trkpt>
<trkpt lat="50.697389" lon="4.600018"><time>2026-05-08T08:09:47Z</time></trkpt>
<trkpt lat="50.697235" lon="4.600570"><time>2026-05-08T08:19:47Z</time></trkpt>
<trkpt lat="50.697675" lon="4.601152"><time>2026-05-08T08:29:47Z</time></trkpt>
<trkpt lat="50.698106" lon="4.601466"><time>2026-05-08T08:39:47Z</time></trkpt>
</trkseg>
</trk>
<trk>
<name>bwvlm18</name>
<cmt>r</cmt>
<desc>Limal Chemin n°18 Chemin de Lauzelle / Allée du Bois des Quewées</desc>
<link href="https://chemins.be/limal/chemin/18"/><trkseg>
<trkpt lat="50.686791" lon="4.613056"><time>2026-05-08T03:59:47Z</time></trkpt>
<trkpt lat="50.686425" lon="4.611455"><time>2026-05-08T04:09:47Z</time></trkpt>
<trkpt lat="50.685564" lon="4.606512"><time>2026-05-08T04:19:47Z</time></trkpt>
<trkpt lat="50.684950" lon="4.603212"><time>2026-05-08T04:29:47Z</time></trkpt>
<trkpt lat="50.684512" lon="4.601950"><time>2026-05-08T04:39:47Z</time></trkpt>
</trkseg></trk>
<trk>
<name>bwvlm18</name>
<cmt>v</cmt>
<desc>Limal Chemin n°18 Chemin de Lauzelle / Allée du Bois des Quewées</desc>
<link href="https://chemins.be/limal/chemin/18"/><trkseg>
<trkpt lat="50.684512" lon="4.601950"><time>2026-05-08T04:39:47Z</time></trkpt>
<trkpt lat="50.683359" lon="4.598732"><time>2026-05-08T04:49:47Z</time></trkpt>
<trkpt lat="50.682966" lon="4.597188"><time>2026-05-08T04:59:47Z</time></trkpt>
</trkseg>
</trk>
<trk>
<name>bwvlm2</name>
<cmt>r</cmt>
<desc>Limal Chemin n°2 </desc>
<link href="https://chemins.be/limal/chemin/2"/><trkseg>
<trkpt lat="50.681511" lon="4.614350"><time>2026-05-08T03:59:47Z</time></trkpt>
<trkpt lat="50.683096" lon="4.613047"><time>2026-05-08T04:09:47Z</time></trkpt>
</trkseg></trk>
<trk>
<name>bwvlm2</name>
<cmt>v</cmt>
<desc>Limal Chemin n°2 </desc>
<link href="https://chemins.be/limal/chemin/2"/><trkseg>
<trkpt lat="50.683096" lon="4.613047"><time>2026-05-08T04:09:47Z</time></trkpt>
<trkpt lat="50.683746" lon="4.612513"><time>2026-05-08T04:19:47Z</time></trkpt>
<trkpt lat="50.686813" lon="4.613080"><time>2026-05-08T04:29:47Z</time></trkpt>
</trkseg>
</trk>
<trk>
<name>bwvlm22</name>
<cmt>v</cmt>
<desc>Limal Chemin n°22 Chemin des Coyautes</desc>
<link href="https://chemins.be/limal/chemin/22"/><trkseg>
<trkpt lat="50.693922" lon="4.583461"><time>2026-05-08T03:59:47Z</time></trkpt>
<trkpt lat="50.694710" lon="4.582770"><time>2026-05-08T04:09:47Z</time></trkpt>
</trkseg></trk>
<trk>
<name>bwvlm22</name>
<cmt>d</cmt>
<desc>Limal Chemin n°22 Chemin des Coyautes</desc>
<link href="https://chemins.be/limal/chemin/22"/><trkseg>
<trkpt lat="50.694710" lon="4.582770"><time>2026-05-08T04:09:47Z</time></trkpt>
<trkpt lat="50.695094" lon="4.582414"><time>2026-05-08T04:19:47Z</time></trkpt>
</trkseg>
</trk>
<trk>
<name>bwvlm23</name>
<cmt>r</cmt>
<desc>Limal Chemin n°23 Champ des Fontaines</desc>
<link href="https://chemins.be/limal/chemin/23"/><trkseg>
<trkpt lat="50.701537" lon="4.575702"><time>2026-05-08T03:59:47Z</time></trkpt>
<trkpt lat="50.701018" lon="4.575020"><time>2026-05-08T04:09:47Z</time></trkpt>
<trkpt lat="50.701002" lon="4.574771"><time>2026-05-08T04:19:47Z</time></trkpt>
</trkseg>
</trk>
<trk>
<name>bwvlm27</name>
<cmt>v</cmt>
<desc>Limal Chemin n°27 </desc>
<link href="https://chemins.be/limal/chemin/27"/><trkseg>
<trkpt lat="50.698101" lon="4.577674"><time>2026-05-08T03:59:47Z</time></trkpt>
<trkpt lat="50.697997" lon="4.577846"><time>2026-05-08T04:09:47Z</time></trkpt>
<trkpt lat="50.697426" lon="4.578428"><time>2026-05-08T04:19:47Z</time></trkpt>
<trkpt lat="50.697469" lon="4.578936"><time>2026-05-08T04:29:47Z</time></trkpt>
<trkpt lat="50.697374" lon="4.579140"><time>2026-05-08T04:39:47Z</time></trkpt>
</trkseg>
</trk>
<trk>
<name>bwvlm29</name>
<cmt>v</cmt>
<desc>Limal Chemin n°29 </desc>
<link href="https://chemins.be/limal/chemin/29"/><trkseg>
<trkpt lat="50.700681" lon="4.536123"><time>2026-05-08T03:59:47Z</time></trkpt>
<trkpt lat="50.700075" lon="4.538938"><time>2026-05-08T04:09:47Z</time></trkpt>
<trkpt lat="50.699504" lon="4.542035"><time>2026-05-08T04:19:47Z</time></trkpt>
<trkpt lat="50.699413" lon="4.542431"><time>2026-05-08T04:29:47Z</time></trkpt>
<trkpt lat="50.699581" lon="4.544683"><time>2026-05-08T04:39:47Z</time></trkpt>
</trkseg>
</trk>
<trk>
<name>bwvlm3</name>
<cmt>v</cmt>
<desc>Limal Chemin n°3 </desc>
<link href="https://chemins.be/limal/chemin/3"/><trkseg>
<trkpt lat="50.684530" lon="4.601860"><time>2026-05-08T03:59:47Z</time></trkpt>
<trkpt lat="50.683714" lon="4.602769"><time>2026-05-08T04:09:47Z</time></trkpt>
<trkpt lat="50.683040" lon="4.605173"><time>2026-05-08T04:19:47Z</time></trkpt>
<trkpt lat="50.683029" lon="4.607971"><time>2026-05-08T04:29:47Z</time></trkpt>
<trkpt lat="50.682811" lon="4.611438"><time>2026-05-08T04:39:47Z</time></trkpt>
<trkpt lat="50.683105" lon="4.613069"><time>2026-05-08T04:49:47Z</time></trkpt>
</trkseg>
</trk>
<trk>
<name>bwvlm30</name>
<cmt>v</cmt>
<desc>Limal Chemin n°30 Laie aux Chevreuils / Sentier du 1er Fond</desc>
<link href="https://chemins.be/limal/chemin/30"/><trkseg>
<trkpt lat="50.697075" lon="4.604391"><time>2026-05-08T03:59:47Z</time></trkpt>
<trkpt lat="50.696685" lon="4.605988"><time>2026-05-08T04:09:47Z</time></trkpt>
<trkpt lat="50.696316" lon="4.606156"><time>2026-05-08T04:19:47Z</time></trkpt>
<trkpt lat="50.696145" lon="4.606183"><time>2026-05-08T04:29:47Z</time></trkpt>
<trkpt lat="50.695830" lon="4.606323"><time>2026-05-08T04:39:47Z</time></trkpt>
<trkpt lat="50.695758" lon="4.606394"><time>2026-05-08T04:49:47Z</time></trkpt>
<trkpt lat="50.695632" lon="4.606464"><time>2026-05-08T04:59:47Z</time></trkpt>
<trkpt lat="50.695272" lon="4.606759"><time>2026-05-08T05:09:47Z</time></trkpt>
<trkpt lat="50.695128" lon="4.606829"><time>2026-05-08T05:19:47Z</time></trkpt>
<trkpt lat="50.694769" lon="4.606785"><time>2026-05-08T05:29:47Z</time></trkpt>
<trkpt lat="50.694580" lon="4.606728"><time>2026-05-08T05:39:47Z</time></trkpt>
<trkpt lat="50.694311" lon="4.606471"><time>2026-05-08T05:49:47Z</time></trkpt>
<trkpt lat="50.694149" lon="4.606244"><time>2026-05-08T05:59:47Z</time></trkpt>
<trkpt lat="50.693952" lon="4.606017"><time>2026-05-08T06:09:47Z</time></trkpt>
<trkpt lat="50.693755" lon="4.605733"><time>2026-05-08T06:19:47Z</time></trkpt>
<trkpt lat="50.693190" lon="4.605220"><time>2026-05-08T06:29:47Z</time></trkpt>
<trkpt lat="50.692696" lon="4.604638"><time>2026-05-08T06:39:47Z</time></trkpt>
<trkpt lat="50.692544" lon="4.604509"><time>2026-05-08T06:49:47Z</time></trkpt>
<trkpt lat="50.692373" lon="4.604424"><time>2026-05-08T06:59:47Z</time></trkpt>
<trkpt lat="50.691960" lon="4.604407"><time>2026-05-08T07:09:47Z</time></trkpt>
<trkpt lat="50.691636" lon="4.604576"><time>2026-05-08T07:19:47Z</time></trkpt>
<trkpt lat="50.691231" lon="4.604658"><time>2026-05-08T07:29:47Z</time></trkpt>
<trkpt lat="50.690727" lon="4.605081"><time>2026-05-08T07:39:47Z</time></trkpt>
<trkpt lat="50.690385" lon="4.605192"><time>2026-05-08T07:49:47Z</time></trkpt>
<trkpt lat="50.689872" lon="4.605189"><time>2026-05-08T07:59:47Z</time></trkpt>
<trkpt lat="50.689369" lon="4.605286"><time>2026-05-08T08:09:47Z</time></trkpt>
</trkseg>
</trk>
<trk>
<name>bwvlm31</name>
<cmt>v</cmt>
<desc>Limal Chemin n°31 Chemin du Pirroy</desc>
<link href="https://chemins.be/limal/chemin/31"/><trkseg>
<trkpt lat="50.697332" lon="4.592714"><time>2026-05-08T03:59:47Z</time></trkpt>
<trkpt lat="50.697240" lon="4.593634"><time>2026-05-08T04:09:47Z</time></trkpt>
<trkpt lat="50.697480" lon="4.594824"><time>2026-05-08T04:19:47Z</time></trkpt>
<trkpt lat="50.697470" lon="4.595702"><time>2026-05-08T04:29:47Z</time></trkpt>
<trkpt lat="50.697433" lon="4.596041"><time>2026-05-08T04:39:47Z</time></trkpt>
<trkpt lat="50.696955" lon="4.597115"><time>2026-05-08T04:49:47Z</time></trkpt>
</trkseg>
</trk>
<trk>
<name>bwvlm32</name>
<cmt>v</cmt>
<desc>Limal Chemin n°32 Scavée de la Carrière</desc>
<link href="https://chemins.be/limal/chemin/32"/><trkseg>
<trkpt lat="50.697354" lon="4.575800"><time>2026-05-08T03:59:47Z</time></trkpt>
<trkpt lat="50.697498" lon="4.575588"><time>2026-05-08T04:09:47Z</time></trkpt>
<trkpt lat="50.697742" lon="4.575009"><time>2026-05-08T04:19:47Z</time></trkpt>
<trkpt lat="50.698149" lon="4.573836"><time>2026-05-08T04:29:47Z</time></trkpt>
<trkpt lat="50.698473" lon="4.573342"><time>2026-05-08T04:39:47Z</time></trkpt>
<trkpt lat="50.698518" lon="4.573342"><time>2026-05-08T04:49:47Z</time></trkpt>
</trkseg>
</trk>
<trk>
<name>bwvlm34</name>
<cmt>v</cmt>
<desc>Limal Chemin n°34 </desc>
<link href="https://chemins.be/limal/chemin/34"/><trkseg>
<trkpt lat="50.698081" lon="4.549447"><time>2026-05-08T03:59:47Z</time></trkpt>
<trkpt lat="50.698477" lon="4.549024"><time>2026-05-08T04:09:47Z</time></trkpt>
<trkpt lat="50.698983" lon="4.547710"><time>2026-05-08T04:19:47Z</time></trkpt>
<trkpt lat="50.699712" lon="4.547061"><time>2026-05-08T04:29:47Z</time></trkpt>
</trkseg>
</trk>
<trk>
<name>bwvlm36</name>
<cmt>s</cmt>
<desc>Limal Chemin n°36 Chemin du Flétry</desc>
<link href="https://chemins.be/limal/chemin/36"/><trkseg>
<trkpt lat="50.707336" lon="4.558210"><time>2026-05-08T03:59:47Z</time></trkpt>
<trkpt lat="50.712874" lon="4.557847"><time>2026-05-08T04:09:47Z</time></trkpt>
</trkseg></trk>
<trk>
<name>bwvlm36</name>
<cmt>v</cmt>
<desc>Limal Chemin n°36 Chemin du Flétry</desc>
<link href="https://chemins.be/limal/chemin/36"/><trkseg>
<trkpt lat="50.712874" lon="4.557847"><time>2026-05-08T04:09:47Z</time></trkpt>
<trkpt lat="50.713314" lon="4.557840"><time>2026-05-08T04:19:47Z</time></trkpt>
</trkseg></trk>
<trk>
<name>bwvlm36</name>
<cmt>d</cmt>
<desc>Limal Chemin n°36 Chemin du Flétry</desc>
<link href="https://chemins.be/limal/chemin/36"/><trkseg>
<trkpt lat="50.713314" lon="4.557840"><time>2026-05-08T04:19:47Z</time></trkpt>
<trkpt lat="50.714546" lon="4.557780"><time>2026-05-08T04:29:47Z</time></trkpt>
</trkseg></trk>
<trk>
<name>bwvlm36</name>
<cmt>v</cmt>
<desc>Limal Chemin n°36 Chemin du Flétry</desc>
<link href="https://chemins.be/limal/chemin/36"/><trkseg>
<trkpt lat="50.714546" lon="4.557780"><time>2026-05-08T04:29:47Z</time></trkpt>
<trkpt lat="50.715667" lon="4.558464"><time>2026-05-08T04:39:47Z</time></trkpt>
<trkpt lat="50.716367" lon="4.559011"><time>2026-05-08T04:49:47Z</time></trkpt>
<trkpt lat="50.716690" lon="4.558833"><time>2026-05-08T04:59:47Z</time></trkpt>
<trkpt lat="50.717041" lon="4.558666"><time>2026-05-08T05:09:47Z</time></trkpt>
<trkpt lat="50.717251" lon="4.558654"><time>2026-05-08T05:19:47Z</time></trkpt>
<trkpt lat="50.717520" lon="4.558755"><time>2026-05-08T05:29:47Z</time></trkpt>
</trkseg>
</trk>
<trk>
<name>bwvlm38</name>
<cmt>r</cmt>
<desc>Limal Chemin n°38 Rue Hubin</desc>
<link href="https://chemins.be/limal/chemin/38"/><trkseg>
<trkpt lat="50.699038" lon="4.595301"><time>2026-05-08T03:59:47Z</time></trkpt>
<trkpt lat="50.698343" lon="4.597357"><time>2026-05-08T04:09:47Z</time></trkpt>
<trkpt lat="50.698864" lon="4.597958"><time>2026-05-08T04:19:47Z</time></trkpt>
<trkpt lat="50.699068" lon="4.598573"><time>2026-05-08T04:29:47Z</time></trkpt>
</trkseg>
</trk>
<trk>
<name>bwvlm39</name>
<cmt>v</cmt>
<desc>Limal Sentier n°39 Rue Joseph Mathy</desc>
<link href="https://chemins.be/limal/sentier/39"/><trkseg>
<trkpt lat="50.696513" lon="4.552003"><time>2026-05-08T03:59:47Z</time></trkpt>
<trkpt lat="50.696765" lon="4.551919"><time>2026-05-08T04:09:47Z</time></trkpt>
<trkpt lat="50.696899" lon="4.552033"><time>2026-05-08T04:19:47Z</time></trkpt>
<trkpt lat="50.697213" lon="4.552501"><time>2026-05-08T04:29:47Z</time></trkpt>
<trkpt lat="50.697711" lon="4.553219"><time>2026-05-08T04:39:47Z</time></trkpt>
<trkpt lat="50.697877" lon="4.553571"><time>2026-05-08T04:49:47Z</time></trkpt>
<trkpt lat="50.698305" lon="4.554595"><time>2026-05-08T04:59:47Z</time></trkpt>
<trkpt lat="50.698495" lon="4.554969"><time>2026-05-08T05:09:47Z</time></trkpt>
<trkpt lat="50.698862" lon="4.555891"><time>2026-05-08T05:19:47Z</time></trkpt>
<trkpt lat="50.699838" lon="4.558216"><time>2026-05-08T05:29:47Z</time></trkpt>
</trkseg>
</trk>
<trk>
<name>bwvlm4</name>
<cmt>r</cmt>
<desc>Limal Chemin n°4 Chemin de Rosières</desc>
<link href="https://chemins.be/limal/chemin/4"/><trkseg>
<trkpt lat="50.704511" lon="4.559438"><time>2026-05-08T03:59:47Z</time></trkpt>
<trkpt lat="50.704827" lon="4.559318"><time>2026-05-08T04:09:47Z</time></trkpt>
</trkseg></trk>
<trk>
<name>bwvlm4</name>
<cmt>v</cmt>
<desc>Limal Chemin n°4 Chemin de Rosières</desc>
<link href="https://chemins.be/limal/chemin/4"/><trkseg>
<trkpt lat="50.704827" lon="4.559318"><time>2026-05-08T04:09:47Z</time></trkpt>
<trkpt lat="50.705532" lon="4.559058"><time>2026-05-08T04:19:47Z</time></trkpt>
<trkpt lat="50.707219" lon="4.558062"><time>2026-05-08T04:29:47Z</time></trkpt>
</trkseg></trk>
<trk>
<name>bwvlm4</name>
<cmt>s</cmt>
<desc>Limal Chemin n°4 Chemin de Rosières</desc>
<link href="https://chemins.be/limal/chemin/4"/><trkseg>
<trkpt lat="50.707219" lon="4.558062"><time>2026-05-08T04:29:47Z</time></trkpt>
<trkpt lat="50.710246" lon="4.554124"><time>2026-05-08T04:39:47Z</time></trkpt>
<trkpt lat="50.712898" lon="4.552047"><time>2026-05-08T04:49:47Z</time></trkpt>
</trkseg></trk>
<trk>
<name>bwvlm4</name>
<cmt>v</cmt>
<desc>Limal Chemin n°4 Chemin de Rosières</desc>
<link href="https://chemins.be/limal/chemin/4"/><trkseg>
<trkpt lat="50.712898" lon="4.552047"><time>2026-05-08T04:49:47Z</time></trkpt>
<trkpt lat="50.714737" lon="4.550687"><time>2026-05-08T04:59:47Z</time></trkpt>
</trkseg>
</trk>
<trk>
<name>bwvlm40</name>
<cmt>b</cmt>
<desc>Limal Sentier n°40 Chemin des Baleaux</desc>
<link href="https://chemins.be/limal/sentier/40"/><trkseg>
<trkpt lat="50.694543" lon="4.552706"><time>2026-05-08T03:59:47Z</time></trkpt>
<trkpt lat="50.693366" lon="4.553080"><time>2026-05-08T04:09:47Z</time></trkpt>
<trkpt lat="50.692780" lon="4.552333"><time>2026-05-08T04:19:47Z</time></trkpt>
<trkpt lat="50.691605" lon="4.551687"><time>2026-05-08T04:29:47Z</time></trkpt>
<trkpt lat="50.691272" lon="4.551997"><time>2026-05-08T04:39:47Z</time></trkpt>
<trkpt lat="50.691137" lon="4.552124"><time>2026-05-08T04:49:47Z</time></trkpt>
<trkpt lat="50.690984" lon="4.552335"><time>2026-05-08T04:59:47Z</time></trkpt>
</trkseg></trk>
<trk>
<name>bwvlm40</name>
<cmt>s</cmt>
<desc>Limal Sentier n°40 Chemin des Baleaux</desc>
<link href="https://chemins.be/limal/sentier/40"/><trkseg>
<trkpt lat="50.690984" lon="4.552335"><time>2026-05-08T04:59:47Z</time></trkpt>
<trkpt lat="50.690610" lon="4.551959"><time>2026-05-08T05:09:47Z</time></trkpt>
</trkseg></trk>
<trk>
<name>bwvlm40</name>
<cmt>d</cmt>
<desc>Limal Sentier n°40 Chemin des Baleaux</desc>
<link href="https://chemins.be/limal/sentier/40"/><trkseg>
<trkpt lat="50.690610" lon="4.551959"><time>2026-05-08T05:09:47Z</time></trkpt>
<trkpt lat="50.689837" lon="4.551171"><time>2026-05-08T05:19:47Z</time></trkpt>
<trkpt lat="50.689673" lon="4.551014"><time>2026-05-08T05:29:47Z</time></trkpt>
<trkpt lat="50.689700" lon="4.550774"><time>2026-05-08T05:39:47Z</time></trkpt>
<trkpt lat="50.689629" lon="4.550504"><time>2026-05-08T05:49:47Z</time></trkpt>
</trkseg>
</trk>
<trk>
<name>bwvlm41</name>
<cmt>v</cmt>
<desc>Limal Sentier n°41 Chemin de Rofessart</desc>
<link href="https://chemins.be/limal/sentier/41"/><trkseg>
<trkpt lat="50.692676" lon="4.539180"><time>2026-05-08T03:59:47Z</time></trkpt>
<trkpt lat="50.693260" lon="4.538970"><time>2026-05-08T04:09:47Z</time></trkpt>
<trkpt lat="50.694527" lon="4.539413"><time>2026-05-08T04:19:47Z</time></trkpt>
<trkpt lat="50.695445" lon="4.539161"><time>2026-05-08T04:29:47Z</time></trkpt>
<trkpt lat="50.698360" lon="4.537473"><time>2026-05-08T04:39:47Z</time></trkpt>
<trkpt lat="50.700465" lon="4.536051"><time>2026-05-08T04:49:47Z</time></trkpt>
</trkseg>
</trk>
<trk>
<name>bwvlm42</name>
<cmt>s</cmt>
<desc>Limal Sentier n°42 Boulevard de l'Europe / Rue Achille Bauduin</desc>
<link href="https://chemins.be/limal/sentier/42"/><trkseg>
<trkpt lat="50.700405" lon="4.590248"><time>2026-05-08T03:59:47Z</time></trkpt>
<trkpt lat="50.698539" lon="4.587508"><time>2026-05-08T04:09:47Z</time></trkpt>
<trkpt lat="50.696764" lon="4.585734"><time>2026-05-08T04:19:47Z</time></trkpt>
</trkseg></trk>
<trk>
<name>bwvlm42</name>
<cmt>q</cmt>
<desc>Limal Sentier n°42 Boulevard de l'Europe / Rue Achille Bauduin</desc>
<link href="https://chemins.be/limal/sentier/42"/><trkseg>
<trkpt lat="50.696764" lon="4.585734"><time>2026-05-08T04:19:47Z</time></trkpt>
<trkpt lat="50.695812" lon="4.583830"><time>2026-05-08T04:29:47Z</time></trkpt>
<trkpt lat="50.695067" lon="4.582362"><time>2026-05-08T04:39:47Z</time></trkpt>
</trkseg></trk>
<trk>
<name>bwvlm42</name>
<cmt>s</cmt>
<desc>Limal Sentier n°42 Boulevard de l'Europe / Rue Achille Bauduin</desc>
<link href="https://chemins.be/limal/sentier/42"/><trkseg>
<trkpt lat="50.695067" lon="4.582362"><time>2026-05-08T04:39:47Z</time></trkpt>
<trkpt lat="50.694578" lon="4.581169"><time>2026-05-08T04:49:47Z</time></trkpt>
<trkpt lat="50.694045" lon="4.581281"><time>2026-05-08T04:59:47Z</time></trkpt>
<trkpt lat="50.693338" lon="4.580251"><time>2026-05-08T05:09:47Z</time></trkpt>
<trkpt lat="50.693099" lon="4.579418"><time>2026-05-08T05:19:47Z</time></trkpt>
<trkpt lat="50.692291" lon="4.578332"><time>2026-05-08T05:29:47Z</time></trkpt>
</trkseg></trk>
<trk>
<name>bwvlm42</name>
<cmt>r</cmt>
<desc>Limal Sentier n°42 Boulevard de l'Europe / Rue Achille Bauduin</desc>
<link href="https://chemins.be/limal/sentier/42"/><trkseg>
<trkpt lat="50.692291" lon="4.578332"><time>2026-05-08T05:29:47Z</time></trkpt>
<trkpt lat="50.692116" lon="4.577069"><time>2026-05-08T05:39:47Z</time></trkpt>
</trkseg></trk>
<trk>
<name>bwvlm42</name>
<cmt>s</cmt>
<desc>Limal Sentier n°42 Boulevard de l'Europe / Rue Achille Bauduin</desc>
<link href="https://chemins.be/limal/sentier/42"/><trkseg>
<trkpt lat="50.692116" lon="4.577069"><time>2026-05-08T05:39:47Z</time></trkpt>
<trkpt lat="50.691602" lon="4.577485"><time>2026-05-08T05:49:47Z</time></trkpt>
<trkpt lat="50.690195" lon="4.576860"><time>2026-05-08T05:59:47Z</time></trkpt>
<trkpt lat="50.689762" lon="4.576578"><time>2026-05-08T06:09:47Z</time></trkpt>
<trkpt lat="50.687424" lon="4.576042"><time>2026-05-08T06:19:47Z</time></trkpt>
</trkseg>
</trk>
<trk>
<name>bwvlm42bis</name>
<cmt>v</cmt>
<desc>Limal Sentier n°42bis Rue Achille Bauduin</desc>
<link href="https://chemins.be/limal/sentier/42bis"/><trkseg>
<trkpt lat="50.693047" lon="4.580972"><time>2026-05-08T03:59:47Z</time></trkpt>
<trkpt lat="50.693212" lon="4.580729"><time>2026-05-08T04:09:47Z</time></trkpt>
</trkseg></trk>
<trk>
<name>bwvlm42bis</name>
<cmt>b</cmt>
<desc>Limal Sentier n°42bis Rue Achille Bauduin</desc>
<link href="https://chemins.be/limal/sentier/42bis"/><trkseg>
<trkpt lat="50.693212" lon="4.580729"><time>2026-05-08T04:09:47Z</time></trkpt>
<trkpt lat="50.693422" lon="4.580414"><time>2026-05-08T04:19:47Z</time></trkpt>
</trkseg>
</trk>
<trk>
<name>bwvlm43</name>
<cmt>r</cmt>
<desc>Limal Sentier n°43 Boulevard de l'Europe / Rue des Prés</desc>
<link href="https://chemins.be/limal/sentier/43"/><trkseg>
<trkpt lat="50.692278" lon="4.576749"><time>2026-05-08T03:59:47Z</time></trkpt>
<trkpt lat="50.692762" lon="4.577401"><time>2026-05-08T04:09:47Z</time></trkpt>
<trkpt lat="50.693063" lon="4.577562"><time>2026-05-08T04:19:47Z</time></trkpt>
<trkpt lat="50.694059" lon="4.578677"><time>2026-05-08T04:29:47Z</time></trkpt>
</trkseg></trk>
<trk>
<name>bwvlm43</name>
<cmt>d</cmt>
<desc>Limal Sentier n°43 Boulevard de l'Europe / Rue des Prés</desc>
<link href="https://chemins.be/limal/sentier/43"/><trkseg>
<trkpt lat="50.694059" lon="4.578677"><time>2026-05-08T04:29:47Z</time></trkpt>
<trkpt lat="50.694601" lon="4.579525"><time>2026-05-08T04:39:47Z</time></trkpt>
</trkseg></trk>
<trk>
<name>bwvlm43</name>
<cmt>b</cmt>
<desc>Limal Sentier n°43 Boulevard de l'Europe / Rue des Prés</desc>
<link href="https://chemins.be/limal/sentier/43"/><trkseg>
<trkpt lat="50.694601" lon="4.579525"><time>2026-05-08T04:39:47Z</time></trkpt>
<trkpt lat="50.695741" lon="4.580233"><time>2026-05-08T04:49:47Z</time></trkpt>
<trkpt lat="50.696385" lon="4.580955"><time>2026-05-08T04:59:47Z</time></trkpt>
<trkpt lat="50.697024" lon="4.581830"><time>2026-05-08T05:09:47Z</time></trkpt>
<trkpt lat="50.697287" lon="4.582609"><time>2026-05-08T05:19:47Z</time></trkpt>
</trkseg></trk>
<trk>
<name>bwvlm43</name>
<cmt>s</cmt>
<desc>Limal Sentier n°43 Boulevard de l'Europe / Rue des Prés</desc>
<link href="https://chemins.be/limal/sentier/43"/><trkseg>
<trkpt lat="50.697287" lon="4.582609"><time>2026-05-08T05:19:47Z</time></trkpt>
<trkpt lat="50.697456" lon="4.583226"><time>2026-05-08T05:29:47Z</time></trkpt>
</trkseg></trk>
<trk>
<name>bwvlm43</name>
<cmt>q</cmt>
<desc>Limal Sentier n°43 Boulevard de l'Europe / Rue des Prés</desc>
<link href="https://chemins.be/limal/sentier/43"/><trkseg>
<trkpt lat="50.697456" lon="4.583226"><time>2026-05-08T05:29:47Z</time></trkpt>
<trkpt lat="50.700069" lon="4.587443"><time>2026-05-08T05:39:47Z</time></trkpt>
</trkseg>
</trk>
<trk>
<name>bwvlm44</name>
<cmt>v</cmt>
<desc>Limal Sentier n°44 Rue de la Scavée / rue de la Scavée</desc>
<link href="https://chemins.be/limal/sentier/44"/><trkseg>
<trkpt lat="50.690857" lon="4.579281"><time>2026-05-08T03:59:47Z</time></trkpt>
<trkpt lat="50.690443" lon="4.579732"><time>2026-05-08T04:09:47Z</time></trkpt>
<trkpt lat="50.690199" lon="4.580057"><time>2026-05-08T04:19:47Z</time></trkpt>
<trkpt lat="50.689641" lon="4.580804"><time>2026-05-08T04:29:47Z</time></trkpt>
<trkpt lat="50.689560" lon="4.580719"><time>2026-05-08T04:39:47Z</time></trkpt>
<trkpt lat="50.688993" lon="4.581212"><time>2026-05-08T04:49:47Z</time></trkpt>
</trkseg>
</trk>
<trk>
<name>bwvlm45</name>
<cmt>s</cmt>
<desc>Limal Sentier n°45 </desc>
<link href="https://chemins.be/limal/sentier/45"/><trkseg>
<trkpt lat="50.697693" lon="4.575162"><time>2026-05-08T03:59:47Z</time></trkpt>
<trkpt lat="50.698269" lon="4.575454"><time>2026-05-08T04:09:47Z</time></trkpt>
<trkpt lat="50.699795" lon="4.575265"><time>2026-05-08T04:19:47Z</time></trkpt>
</trkseg></trk>
<trk>
<name>bwvlm45</name>
<cmt>d</cmt>
<desc>Limal Sentier n°45 </desc>
<link href="https://chemins.be/limal/sentier/45"/><trkseg>
<trkpt lat="50.699795" lon="4.575265"><time>2026-05-08T04:19:47Z</time></trkpt>
<trkpt lat="50.700026" lon="4.575211"><time>2026-05-08T04:29:47Z</time></trkpt>
</trkseg></trk>
<trk>
<name>bwvlm45</name>
<cmt>s</cmt>
<desc>Limal Sentier n°45 </desc>
<link href="https://chemins.be/limal/sentier/45"/><trkseg>
<trkpt lat="50.700026" lon="4.575211"><time>2026-05-08T04:29:47Z</time></trkpt>
<trkpt lat="50.701004" lon="4.574745"><time>2026-05-08T04:39:47Z</time></trkpt>
</trkseg>
</trk>
<trk>
<name>bwvlm46</name>
<cmt>s</cmt>
<desc>Limal Sentier n°46 </desc>
<link href="https://chemins.be/limal/sentier/46"/><trkseg>
<trkpt lat="50.702027" lon="4.592881"><time>2026-05-08T03:59:47Z</time></trkpt>
<trkpt lat="50.700083" lon="4.596199"><time>2026-05-08T04:09:47Z</time></trkpt>
</trkseg></trk>
<trk>
<name>bwvlm46</name>
<cmt>d</cmt>
<desc>Limal Sentier n°46 </desc>
<link href="https://chemins.be/limal/sentier/46"/><trkseg>
<trkpt lat="50.700083" lon="4.596199"><time>2026-05-08T04:09:47Z</time></trkpt>
<trkpt lat="50.699570" lon="4.597398"><time>2026-05-08T04:19:47Z</time></trkpt>
</trkseg></trk>
<trk>
<name>bwvlm46</name>
<cmt>b</cmt>
<desc>Limal Sentier n°46 </desc>
<link href="https://chemins.be/limal/sentier/46"/><trkseg>
<trkpt lat="50.699570" lon="4.597398"><time>2026-05-08T04:19:47Z</time></trkpt>
<trkpt lat="50.699493" lon="4.597586"><time>2026-05-08T04:29:47Z</time></trkpt>
<trkpt lat="50.698977" lon="4.598260"><time>2026-05-08T04:39:47Z</time></trkpt>
</trkseg>
</trk>
<trk>
<name>bwvlm46bis</name>
<cmt>v</cmt>
<desc>Limal Sentier n°46bis </desc>
<link href="https://chemins.be/limal/sentier/46bis"/><trkseg>
<trkpt lat="50.701670" lon="4.598912"><time>2026-05-08T03:59:47Z</time></trkpt>
<trkpt lat="50.702476" lon="4.597849"><time>2026-05-08T04:09:47Z</time></trkpt>
</trkseg></trk>
<trk>
<name>bwvlm46bis</name>
<cmt>r</cmt>
<desc>Limal Sentier n°46bis </desc>
<link href="https://chemins.be/limal/sentier/46bis"/><trkseg>
<trkpt lat="50.702476" lon="4.597849"><time>2026-05-08T04:09:47Z</time></trkpt>
<trkpt lat="50.703908" lon="4.595951"><time>2026-05-08T04:19:47Z</time></trkpt>
</trkseg>
</trk>
<trk>
<name>bwvlm47</name>
<cmt>d</cmt>
<desc>Limal Sentier n°47 </desc>
<link href="https://chemins.be/limal/sentier/47"/><trkseg>
<trkpt lat="50.702511" lon="4.601006"><time>2026-05-08T03:59:47Z</time></trkpt>
<trkpt lat="50.701732" lon="4.601993"><time>2026-05-08T04:09:47Z</time></trkpt>
<trkpt lat="50.699938" lon="4.601621"><time>2026-05-08T04:19:47Z</time></trkpt>
<trkpt lat="50.699707" lon="4.601936"><time>2026-05-08T04:29:47Z</time></trkpt>
</trkseg></trk>
<trk>
<name>bwvlm47</name>
<cmt>v</cmt>
<desc>Limal Sentier n°47 </desc>
<link href="https://chemins.be/limal/sentier/47"/><trkseg>
<trkpt lat="50.699707" lon="4.601936"><time>2026-05-08T04:29:47Z</time></trkpt>
<trkpt lat="50.699336" lon="4.601449"><time>2026-05-08T04:39:47Z</time></trkpt>
</trkseg>
</trk>
<trk>
<name>bwvlm48</name>
<cmt>s</cmt>
<desc>Limal Sentier n°48 </desc>
<link href="https://chemins.be/limal/sentier/48"/><trkseg>
<trkpt lat="50.696557" lon="4.575222"><time>2026-05-08T03:59:47Z</time></trkpt>
<trkpt lat="50.694817" lon="4.574183"><time>2026-05-08T04:09:47Z</time></trkpt>
<trkpt lat="50.694186" lon="4.572819"><time>2026-05-08T04:19:47Z</time></trkpt>
</trkseg>
</trk>
<trk>
<name>bwvlm49</name>
<cmt>r</cmt>
<desc>Limal Sentier n°49 Sentier du Martineau</desc>
<link href="https://chemins.be/limal/sentier/49"/><trkseg>
<trkpt lat="50.696590" lon="4.575544"><time>2026-05-08T03:59:47Z</time></trkpt>
<trkpt lat="50.696613" lon="4.575348"><time>2026-05-08T04:09:47Z</time></trkpt>
<trkpt lat="50.696486" lon="4.574900"><time>2026-05-08T04:19:47Z</time></trkpt>
</trkseg></trk>
<trk>
<name>bwvlm49</name>
<cmt>v</cmt>
<desc>Limal Sentier n°49 Sentier du Martineau</desc>
<link href="https://chemins.be/limal/sentier/49"/><trkseg>
<trkpt lat="50.696486" lon="4.574900"><time>2026-05-08T04:19:47Z</time></trkpt>
<trkpt lat="50.695859" lon="4.572686"><time>2026-05-08T04:29:47Z</time></trkpt>
<trkpt lat="50.695629" lon="4.571756"><time>2026-05-08T04:39:47Z</time></trkpt>
<trkpt lat="50.695512" lon="4.571445"><time>2026-05-08T04:49:47Z</time></trkpt>
</trkseg>
</trk>
<trk>
<name>bwvlm50</name>
<cmt>r</cmt>
<desc>Limal Sentier n°50 Avenue du Domaine</desc>
<link href="https://chemins.be/limal/sentier/50"/><trkseg>
<trkpt lat="50.701458" lon="4.577214"><time>2026-05-08T03:59:47Z</time></trkpt>
<trkpt lat="50.701438" lon="4.579242"><time>2026-05-08T04:09:47Z</time></trkpt>
</trkseg></trk>
<trk>
<name>bwvlm50</name>
<cmt>s</cmt>
<desc>Limal Sentier n°50 Avenue du Domaine</desc>
<link href="https://chemins.be/limal/sentier/50"/><trkseg>
<trkpt lat="50.701438" lon="4.579242"><time>2026-05-08T04:09:47Z</time></trkpt>
<trkpt lat="50.701689" lon="4.581205"><time>2026-05-08T04:19:47Z</time></trkpt>
</trkseg>
</trk>
<trk>
<name>bwvlm51</name>
<cmt>d</cmt>
<desc>Limal Sentier n°51 Rue du Bois Wilmet</desc>
<link href="https://chemins.be/limal/sentier/51"/><trkseg>
<trkpt lat="50.710756" lon="4.564884"><time>2026-05-08T03:59:47Z</time></trkpt>
<trkpt lat="50.709137" lon="4.566215"><time>2026-05-08T04:09:47Z</time></trkpt>
</trkseg></trk>
<trk>
<name>bwvlm51</name>
<cmt>v</cmt>
<desc>Limal Sentier n°51 Rue du Bois Wilmet</desc>
<link href="https://chemins.be/limal/sentier/51"/><trkseg>
<trkpt lat="50.709137" lon="4.566215"><time>2026-05-08T04:09:47Z</time></trkpt>
<trkpt lat="50.708397" lon="4.566823"><time>2026-05-08T04:19:47Z</time></trkpt>
</trkseg></trk>
<trk>
<name>bwvlm51</name>
<cmt>r</cmt>
<desc>Limal Sentier n°51 Rue du Bois Wilmet</desc>
<link href="https://chemins.be/limal/sentier/51"/><trkseg>
<trkpt lat="50.708397" lon="4.566823"><time>2026-05-08T04:19:47Z</time></trkpt>
<trkpt lat="50.708034" lon="4.568056"><time>2026-05-08T04:29:47Z</time></trkpt>
<trkpt lat="50.706705" lon="4.570799"><time>2026-05-08T04:39:47Z</time></trkpt>
<trkpt lat="50.704884" lon="4.573982"><time>2026-05-08T04:49:47Z</time></trkpt>
</trkseg>
</trk>
<trk>
<name>bwvlm52</name>
<cmt>d</cmt>
<desc>Limal Sentier n°52 Avenue de Nivelles</desc>
<link href="https://chemins.be/limal/sentier/52"/><trkseg>
<trkpt lat="50.709810" lon="4.563785"><time>2026-05-08T03:59:47Z</time></trkpt>
<trkpt lat="50.709115" lon="4.564352"><time>2026-05-08T04:09:47Z</time></trkpt>
<trkpt lat="50.707821" lon="4.563819"><time>2026-05-08T04:19:47Z</time></trkpt>
<trkpt lat="50.707223" lon="4.564472"><time>2026-05-08T04:29:47Z</time></trkpt>
<trkpt lat="50.706767" lon="4.564849"><time>2026-05-08T04:39:47Z</time></trkpt>
<trkpt lat="50.705843" lon="4.564317"><time>2026-05-08T04:49:47Z</time></trkpt>
<trkpt lat="50.705506" lon="4.564411"><time>2026-05-08T04:59:47Z</time></trkpt>
<trkpt lat="50.704419" lon="4.564697"><time>2026-05-08T05:09:47Z</time></trkpt>
</trkseg></trk>
<trk>
<name>bwvlm52</name>
<cmt>r</cmt>
<desc>Limal Sentier n°52 Avenue de Nivelles</desc>
<link href="https://chemins.be/limal/sentier/52"/><trkseg>
<trkpt lat="50.704419" lon="4.564697"><time>2026-05-08T05:09:47Z</time></trkpt>
<trkpt lat="50.704495" lon="4.563942"><time>2026-05-08T05:19:47Z</time></trkpt>
</trkseg></trk>
<trk>
<name>bwvlm52</name>
<cmt>d</cmt>
<desc>Limal Sentier n°52 Avenue de Nivelles</desc>
<link href="https://chemins.be/limal/sentier/52"/><trkseg>
<trkpt lat="50.704495" lon="4.563942"><time>2026-05-08T05:19:47Z</time></trkpt>
<trkpt lat="50.703157" lon="4.564501"><time>2026-05-08T05:29:47Z</time></trkpt>
<trkpt lat="50.702375" lon="4.564525"><time>2026-05-08T05:39:47Z</time></trkpt>
<trkpt lat="50.701712" lon="4.564783"><time>2026-05-08T05:49:47Z</time></trkpt>
<trkpt lat="50.700027" lon="4.565384"><time>2026-05-08T05:59:47Z</time></trkpt>
</trkseg>
</trk>
<trk>
<name>bwvlm53</name>
<cmt>v</cmt>
<desc>Limal Sentier n°53 Sentier du Bois Michot / Rue Elie Legrève / Avenue des Roses</desc>
<link href="https://chemins.be/limal/sentier/53"/><trkseg>
<trkpt lat="50.694019" lon="4.548568"><time>2026-05-08T03:59:47Z</time></trkpt>
<trkpt lat="50.694019" lon="4.548328"><time>2026-05-08T04:09:47Z</time></trkpt>
<trkpt lat="50.693796" lon="4.547152"><time>2026-05-08T04:19:47Z</time></trkpt>
<trkpt lat="50.692727" lon="4.546794"><time>2026-05-08T04:29:47Z</time></trkpt>
<trkpt lat="50.692287" lon="4.546750"><time>2026-05-08T04:39:47Z</time></trkpt>
<trkpt lat="50.691793" lon="4.546380"><time>2026-05-08T04:49:47Z</time></trkpt>
<trkpt lat="50.691587" lon="4.545743"><time>2026-05-08T04:59:47Z</time></trkpt>
</trkseg></trk>
<trk>
<name>bwvlm53</name>
<cmt>r</cmt>
<desc>Limal Sentier n°53 Sentier du Bois Michot / Rue Elie Legrève / Avenue des Roses</desc>
<link href="https://chemins.be/limal/sentier/53"/><trkseg>
<trkpt lat="50.691587" lon="4.545743"><time>2026-05-08T04:59:47Z</time></trkpt>
<trkpt lat="50.691220" lon="4.544821"><time>2026-05-08T05:09:47Z</time></trkpt>
</trkseg>
</trk>
<trk>
<name>bwvlm55</name>
<cmt>s</cmt>
<desc>Limal Sentier n°55 </desc>
<link href="https://chemins.be/limal/sentier/55"/><trkseg>
<trkpt lat="50.702390" lon="4.540079"><time>2026-05-08T03:59:47Z</time></trkpt>
<trkpt lat="50.700916" lon="4.543941"><time>2026-05-08T04:09:47Z</time></trkpt>
</trkseg>
</trk>
<trk>
<name>bwvlm56</name>
<cmt>v</cmt>
<desc>Limal Sentier n°56 Rue Joseph Sneessens</desc>
<link href="https://chemins.be/limal/sentier/56"/><trkseg>
<trkpt lat="50.703464" lon="4.545357"><time>2026-05-08T03:59:47Z</time></trkpt>
<trkpt lat="50.702048" lon="4.546592"><time>2026-05-08T04:09:47Z</time></trkpt>
</trkseg></trk>
<trk>
<name>bwvlm56</name>
<cmt>r</cmt>
<desc>Limal Sentier n°56 Rue Joseph Sneessens</desc>
<link href="https://chemins.be/limal/sentier/56"/><trkseg>
<trkpt lat="50.702048" lon="4.546592"><time>2026-05-08T04:09:47Z</time></trkpt>
<trkpt lat="50.702010" lon="4.546435"><time>2026-05-08T04:19:47Z</time></trkpt>
<trkpt lat="50.701095" lon="4.547151"><time>2026-05-08T04:29:47Z</time></trkpt>
<trkpt lat="50.700161" lon="4.546707"><time>2026-05-08T04:39:47Z</time></trkpt>
</trkseg>
</trk>
<trk>
<name>bwvlm57</name>
<cmt>r</cmt>
<desc>Limal Sentier n°57 Avenue de Mérode</desc>
<link href="https://chemins.be/limal/sentier/57"/><trkseg>
<trkpt lat="50.712860" lon="4.562684"><time>2026-05-08T03:59:47Z</time></trkpt>
<trkpt lat="50.712880" lon="4.555100"><time>2026-05-08T04:09:47Z</time></trkpt>
<trkpt lat="50.712887" lon="4.552013"><time>2026-05-08T04:19:47Z</time></trkpt>
</trkseg></trk>
<trk>
<name>bwvlm57</name>
<cmt>s</cmt>
<desc>Limal Sentier n°57 Avenue de Mérode</desc>
<link href="https://chemins.be/limal/sentier/57"/><trkseg>
<trkpt lat="50.712887" lon="4.552013"><time>2026-05-08T04:19:47Z</time></trkpt>
<trkpt lat="50.712981" lon="4.548769"><time>2026-05-08T04:29:47Z</time></trkpt>
<trkpt lat="50.714708" lon="4.550571"><time>2026-05-08T04:39:47Z</time></trkpt>
</trkseg>
</trk>
<trk>
<name>bwvlm58</name>
<cmt>v</cmt>
<desc>Limal Sentier n°58 Champ des Fontaines</desc>
<link href="https://chemins.be/limal/sentier/58"/><trkseg>
<trkpt lat="50.701000" lon="4.574724"><time>2026-05-08T03:59:47Z</time></trkpt>
<trkpt lat="50.701079" lon="4.573976"><time>2026-05-08T04:09:47Z</time></trkpt>
<trkpt lat="50.701133" lon="4.573736"><time>2026-05-08T04:19:47Z</time></trkpt>
<trkpt lat="50.701215" lon="4.573580"><time>2026-05-08T04:29:47Z</time></trkpt>
<trkpt lat="50.701296" lon="4.573383"><time>2026-05-08T04:39:47Z</time></trkpt>
<trkpt lat="50.701396" lon="4.572859"><time>2026-05-08T04:49:47Z</time></trkpt>
<trkpt lat="50.701405" lon="4.572633"><time>2026-05-08T04:59:47Z</time></trkpt>
<trkpt lat="50.701406" lon="4.572010"><time>2026-05-08T05:09:47Z</time></trkpt>
<trkpt lat="50.701381" lon="4.571217"><time>2026-05-08T05:19:47Z</time></trkpt>
<trkpt lat="50.701381" lon="4.569719"><time>2026-05-08T05:29:47Z</time></trkpt>
<trkpt lat="50.701387" lon="4.569058"><time>2026-05-08T05:39:47Z</time></trkpt>
<trkpt lat="50.700797" lon="4.566870"><time>2026-05-08T05:49:47Z</time></trkpt>
<trkpt lat="50.700484" lon="4.565793"><time>2026-05-08T05:59:47Z</time></trkpt>
</trkseg></trk>
<trk>
<name>bwvlm58</name>
<cmt>s</cmt>
<desc>Limal Sentier n°58 Champ des Fontaines</desc>
<link href="https://chemins.be/limal/sentier/58"/><trkseg>
<trkpt lat="50.700484" lon="4.565793"><time>2026-05-08T05:59:47Z</time></trkpt>
<trkpt lat="50.700378" lon="4.565265"><time>2026-05-08T06:09:47Z</time></trkpt>
</trkseg>
</trk>
<trk>
<name>bwvlm59</name>
<cmt>r</cmt>
<desc>Limal Sentier n°59 Sentier du Buchet</desc>
<link href="https://chemins.be/limal/sentier/59"/><trkseg>
<trkpt lat="50.705022" lon="4.575031"><time>2026-05-08T03:59:47Z</time></trkpt>
<trkpt lat="50.704369" lon="4.575632"><time>2026-05-08T04:09:47Z</time></trkpt>
<trkpt lat="50.703641" lon="4.575598"><time>2026-05-08T04:19:47Z</time></trkpt>
<trkpt lat="50.703413" lon="4.575374"><time>2026-05-08T04:29:47Z</time></trkpt>
<trkpt lat="50.702641" lon="4.575512"><time>2026-05-08T04:39:47Z</time></trkpt>
<trkpt lat="50.701891" lon="4.576301"><time>2026-05-08T04:49:47Z</time></trkpt>
<trkpt lat="50.701586" lon="4.576353"><time>2026-05-08T04:59:47Z</time></trkpt>
</trkseg>
</trk>
<trk>
<name>bwvlm6</name>
<cmt>v</cmt>
<desc>Limal Chemin n°6 Rue aux Loups</desc>
<link href="https://chemins.be/limal/chemin/6"/><trkseg>
<trkpt lat="50.703810" lon="4.603787"><time>2026-05-08T03:59:47Z</time></trkpt>
<trkpt lat="50.703341" lon="4.604266"><time>2026-05-08T04:09:47Z</time></trkpt>
<trkpt lat="50.702945" lon="4.604505"><time>2026-05-08T04:19:47Z</time></trkpt>
<trkpt lat="50.702639" lon="4.604801"><time>2026-05-08T04:29:47Z</time></trkpt>
<trkpt lat="50.702044" lon="4.605505"><time>2026-05-08T04:39:47Z</time></trkpt>
<trkpt lat="50.700620" lon="4.607353"><time>2026-05-08T04:49:47Z</time></trkpt>
<trkpt lat="50.700215" lon="4.607549"><time>2026-05-08T04:59:47Z</time></trkpt>
<trkpt lat="50.699782" lon="4.608056"><time>2026-05-08T05:09:47Z</time></trkpt>
<trkpt lat="50.699295" lon="4.608917"><time>2026-05-08T05:19:47Z</time></trkpt>
<trkpt lat="50.698908" lon="4.609481"><time>2026-05-08T05:29:47Z</time></trkpt>
<trkpt lat="50.698619" lon="4.609805"><time>2026-05-08T05:39:47Z</time></trkpt>
<trkpt lat="50.697915" lon="4.611373"><time>2026-05-08T05:49:47Z</time></trkpt>
</trkseg>
</trk>
<trk>
<name>bwvlm60</name>
<cmt>s</cmt>
<desc>Limal Sentier n°60 </desc>
<link href="https://chemins.be/limal/sentier/60"/><trkseg>
<trkpt lat="50.693192" lon="4.572492"><time>2026-05-08T03:59:47Z</time></trkpt>
<trkpt lat="50.693850" lon="4.571762"><time>2026-05-08T04:09:47Z</time></trkpt>
<trkpt lat="50.694451" lon="4.569531"><time>2026-05-08T04:19:47Z</time></trkpt>
</trkseg>
</trk>
<trk>
<name>bwvlm61</name>
<cmt>v</cmt>
<desc>Limal Sentier n°61 </desc>
<link href="https://chemins.be/limal/sentier/61"/><trkseg>
<trkpt lat="50.697938" lon="4.570269"><time>2026-05-08T03:59:47Z</time></trkpt>
<trkpt lat="50.698626" lon="4.570814"><time>2026-05-08T04:09:47Z</time></trkpt>
</trkseg>
</trk>
<trk>
<name>bwvlm62</name>
<cmt>s</cmt>
<desc>Limal Sentier n°62 Sentier du 1er Fond</desc>
<link href="https://chemins.be/limal/sentier/62"/><trkseg>
<trkpt lat="50.697665" lon="4.611743"><time>2026-05-08T03:59:47Z</time></trkpt>
<trkpt lat="50.696611" lon="4.610661"><time>2026-05-08T04:09:47Z</time></trkpt>
</trkseg></trk>
<trk>
<name>bwvlm62</name>
<cmt>v</cmt>
<desc>Limal Sentier n°62 Sentier du 1er Fond</desc>
<link href="https://chemins.be/limal/sentier/62"/><trkseg>
<trkpt lat="50.696611" lon="4.610661"><time>2026-05-08T04:09:47Z</time></trkpt>
<trkpt lat="50.696479" lon="4.609950"><time>2026-05-08T04:19:47Z</time></trkpt>
<trkpt lat="50.696472" lon="4.609257"><time>2026-05-08T04:29:47Z</time></trkpt>
<trkpt lat="50.696601" lon="4.607729"><time>2026-05-08T04:39:47Z</time></trkpt>
<trkpt lat="50.696620" lon="4.607276"><time>2026-05-08T04:49:47Z</time></trkpt>
<trkpt lat="50.696603" lon="4.606794"><time>2026-05-08T04:59:47Z</time></trkpt>
<trkpt lat="50.696685" lon="4.605988"><time>2026-05-08T05:09:47Z</time></trkpt>
</trkseg>
</trk>
<trk>
<name>bwvlm63</name>
<cmt>v</cmt>
<desc>Limal Sentier n°63 Chemin des Crisnaires</desc>
<link href="https://chemins.be/limal/sentier/63"/><trkseg>
<trkpt lat="50.697217" lon="4.600584"><time>2026-05-08T03:59:47Z</time></trkpt>
<trkpt lat="50.696742" lon="4.599874"><time>2026-05-08T04:09:47Z</time></trkpt>
<trkpt lat="50.695773" lon="4.599105"><time>2026-05-08T04:19:47Z</time></trkpt>
<trkpt lat="50.694164" lon="4.599041"><time>2026-05-08T04:29:47Z</time></trkpt>
</trkseg>
</trk>
<trk>
<name>bwvlm64</name>
<cmt>v</cmt>
<desc>Limal Sentier n°64 Chemin du Pirroy</desc>
<link href="https://chemins.be/limal/sentier/64"/><trkseg>
<trkpt lat="50.691634" lon="4.591682"><time>2026-05-08T03:59:47Z</time></trkpt>
<trkpt lat="50.692217" lon="4.592393"><time>2026-05-08T04:09:47Z</time></trkpt>
<trkpt lat="50.692737" lon="4.593075"><time>2026-05-08T04:19:47Z</time></trkpt>
</trkseg>
</trk>
<trk>
<name>bwvlm65</name>
<cmt>r</cmt>
<desc>Limal Sentier n°65 Clos Vanasse</desc>
<link href="https://chemins.be/limal/sentier/65"/><trkseg>
<trkpt lat="50.691404" lon="4.592020"><time>2026-05-08T03:59:47Z</time></trkpt>
<trkpt lat="50.690970" lon="4.590934"><time>2026-05-08T04:09:47Z</time></trkpt>
<trkpt lat="50.690489" lon="4.589578"><time>2026-05-08T04:19:47Z</time></trkpt>
</trkseg></trk>
<trk>
<name>bwvlm65</name>
<cmt>v</cmt>
<desc>Limal Sentier n°65 Clos Vanasse</desc>
<link href="https://chemins.be/limal/sentier/65"/><trkseg>
<trkpt lat="50.690489" lon="4.589578"><time>2026-05-08T04:19:47Z</time></trkpt>
<trkpt lat="50.690178" lon="4.590228"><time>2026-05-08T04:29:47Z</time></trkpt>
</trkseg></trk>
<trk>
<name>bwvlm65</name>
<cmt>s</cmt>
<desc>Limal Sentier n°65 Clos Vanasse</desc>
<link href="https://chemins.be/limal/sentier/65"/><trkseg>
<trkpt lat="50.690178" lon="4.590228"><time>2026-05-08T04:29:47Z</time></trkpt>
<trkpt lat="50.689876" lon="4.589913"><time>2026-05-08T04:39:47Z</time></trkpt>
<trkpt lat="50.689607" lon="4.589716"><time>2026-05-08T04:49:47Z</time></trkpt>
</trkseg>
</trk>
<trk>
<name>bwvlm65bis</name>
<cmt>d</cmt>
<desc>Limal Chemin n°65bis </desc>
<link href="https://chemins.be/limal/chemin/65bis"/><trkseg>
<trkpt lat="50.690490" lon="4.589579"><time>2026-05-08T03:59:47Z</time></trkpt>
<trkpt lat="50.690303" lon="4.589093"><time>2026-05-08T04:09:47Z</time></trkpt>
<trkpt lat="50.690039" lon="4.588424"><time>2026-05-08T04:19:47Z</time></trkpt>
</trkseg>
</trk>
<trk>
<name>bwvlm66</name>
<cmt>r</cmt>
<desc>Limal Sentier n°66 Rue Acreman</desc>
<link href="https://chemins.be/limal/sentier/66"/><trkseg>
<trkpt lat="50.690695" lon="4.586219"><time>2026-05-08T03:59:47Z</time></trkpt>
<trkpt lat="50.690984" lon="4.586777"><time>2026-05-08T04:09:47Z</time></trkpt>
<trkpt lat="50.690903" lon="4.586895"><time>2026-05-08T04:19:47Z</time></trkpt>
<trkpt lat="50.691102" lon="4.586991"><time>2026-05-08T04:29:47Z</time></trkpt>
<trkpt lat="50.691725" lon="4.588542"><time>2026-05-08T04:39:47Z</time></trkpt>
</trkseg></trk>
<trk>
<name>bwvlm66</name>
<cmt>d</cmt>
<desc>Limal Sentier n°66 Rue Acreman</desc>
<link href="https://chemins.be/limal/sentier/66"/><trkseg>
<trkpt lat="50.691725" lon="4.588542"><time>2026-05-08T04:39:47Z</time></trkpt>
<trkpt lat="50.691685" lon="4.590997"><time>2026-05-08T04:49:47Z</time></trkpt>
</trkseg>
</trk>
<trk>
<name>bwvlm67</name>
<cmt>v</cmt>
<desc>Limal Sentier n°67 Sentier du Preux</desc>
<link href="https://chemins.be/limal/sentier/67"/><trkseg>
<trkpt lat="50.690252" lon="4.580977"><time>2026-05-08T03:59:47Z</time></trkpt>
<trkpt lat="50.690457" lon="4.581544"><time>2026-05-08T04:09:47Z</time></trkpt>
<trkpt lat="50.691014" lon="4.582226"><time>2026-05-08T04:19:47Z</time></trkpt>
</trkseg></trk>
<trk>
<name>bwvlm67</name>
<cmt>r</cmt>
<desc>Limal Sentier n°67 Sentier du Preux</desc>
<link href="https://chemins.be/limal/sentier/67"/><trkseg>
<trkpt lat="50.691014" lon="4.582226"><time>2026-05-08T04:19:47Z</time></trkpt>
<trkpt lat="50.691946" lon="4.583574"><time>2026-05-08T04:29:47Z</time></trkpt>
</trkseg></trk>
<trk>
<name>bwvlm67</name>
<cmt>v</cmt>
<desc>Limal Sentier n°67 Sentier du Preux</desc>
<link href="https://chemins.be/limal/sentier/67"/><trkseg>
<trkpt lat="50.691946" lon="4.583574"><time>2026-05-08T04:29:47Z</time></trkpt>
<trkpt lat="50.692583" lon="4.584073"><time>2026-05-08T04:39:47Z</time></trkpt>
<trkpt lat="50.692672" lon="4.584498"><time>2026-05-08T04:49:47Z</time></trkpt>
</trkseg>
</trk>
<trk>
<name>bwvlm69</name>
<cmt>r</cmt>
<desc>Limal Sentier n°69 Sentier du Grand Cortil</desc>
<link href="https://chemins.be/limal/sentier/69"/><trkseg>
<trkpt lat="50.694886" lon="4.552110"><time>2026-05-08T03:59:47Z</time></trkpt>
<trkpt lat="50.695481" lon="4.550442"><time>2026-05-08T04:09:47Z</time></trkpt>
<trkpt lat="50.695554" lon="4.549834"><time>2026-05-08T04:19:47Z</time></trkpt>
</trkseg></trk>
<trk>
<name>bwvlm69</name>
<cmt>v</cmt>
<desc>Limal Sentier n°69 Sentier du Grand Cortil</desc>
<link href="https://chemins.be/limal/sentier/69"/><trkseg>
<trkpt lat="50.695554" lon="4.549834"><time>2026-05-08T04:19:47Z</time></trkpt>
<trkpt lat="50.695538" lon="4.548716"><time>2026-05-08T04:29:47Z</time></trkpt>
</trkseg>
</trk>
<trk>
<name>bwvlm70</name>
<cmt>v</cmt>
<desc>Limal Sentier n°70 Chemin de Messe</desc>
<link href="https://chemins.be/limal/sentier/70"/><trkseg>
<trkpt lat="50.694571" lon="4.557473"><time>2026-05-08T03:59:47Z</time></trkpt>
<trkpt lat="50.694672" lon="4.556638"><time>2026-05-08T04:09:47Z</time></trkpt>
<trkpt lat="50.694532" lon="4.554090"><time>2026-05-08T04:19:47Z</time></trkpt>
<trkpt lat="50.694552" lon="4.552675"><time>2026-05-08T04:29:47Z</time></trkpt>
<trkpt lat="50.694928" lon="4.552229"><time>2026-05-08T04:39:47Z</time></trkpt>
</trkseg>
</trk>
<trk>
<name>bwvlm71</name>
<cmt>r</cmt>
<desc>Limal Sentier n°71 </desc>
<link href="https://chemins.be/limal/sentier/71"/><trkseg>
<trkpt lat="50.700688" lon="4.581137"><time>2026-05-08T03:59:47Z</time></trkpt>
<trkpt lat="50.701424" lon="4.581186"><time>2026-05-08T04:09:47Z</time></trkpt>
</trkseg></trk>
<trk>
<name>bwvlm71</name>
<cmt>v</cmt>
<desc>Limal Sentier n°71 </desc>
<link href="https://chemins.be/limal/sentier/71"/><trkseg>
<trkpt lat="50.701424" lon="4.581186"><time>2026-05-08T04:09:47Z</time></trkpt>
<trkpt lat="50.701850" lon="4.581276"><time>2026-05-08T04:19:47Z</time></trkpt>
</trkseg>
</trk>
<trk>
<name>bwvlmi1</name>
<cmt>s</cmt>
<desc>Limal Sentier n°i1 </desc>
<link href="https://chemins.be/limal/sentier/i1"/><trkseg>
<trkpt lat="50.691605" lon="4.551644"><time>2026-05-08T03:59:47Z</time></trkpt>
<trkpt lat="50.690967" lon="4.551543"><time>2026-05-08T04:09:47Z</time></trkpt>
</trkseg></trk>
<trk>
<name>bwvlmi1</name>
<cmt>q</cmt>
<desc>Limal Sentier n°i1 </desc>
<link href="https://chemins.be/limal/sentier/i1"/><trkseg>
<trkpt lat="50.690967" lon="4.551543"><time>2026-05-08T04:09:47Z</time></trkpt>
<trkpt lat="50.690417" lon="4.550630"><time>2026-05-08T04:19:47Z</time></trkpt>
<trkpt lat="50.689901" lon="4.549274"><time>2026-05-08T04:29:47Z</time></trkpt>
</trkseg>
</trk>
<trk>
<name>bwvlmi10</name>
<cmt>v</cmt>
<desc>Limal Sentier n°i10 </desc>
<link href="https://chemins.be/limal/sentier/i10"/><trkseg>
<trkpt lat="50.691618" lon="4.549054"><time>2026-05-08T03:59:47Z</time></trkpt>
<trkpt lat="50.691985" lon="4.549848"><time>2026-05-08T04:09:47Z</time></trkpt>
</trkseg>
</trk>
<trk>
<name>bwvlmi11</name>
<cmt>v</cmt>
<desc>Limal Sentier n°i11 </desc>
<link href="https://chemins.be/limal/sentier/i11"/><trkseg>
<trkpt lat="50.710300" lon="4.554195"><time>2026-05-08T03:59:47Z</time></trkpt>
<trkpt lat="50.710399" lon="4.554209"><time>2026-05-08T04:09:47Z</time></trkpt>
<trkpt lat="50.710608" lon="4.554716"><time>2026-05-08T04:19:47Z</time></trkpt>
<trkpt lat="50.711267" lon="4.556308"><time>2026-05-08T04:29:47Z</time></trkpt>
<trkpt lat="50.711204" lon="4.556336"><time>2026-05-08T04:39:47Z</time></trkpt>
<trkpt lat="50.711211" lon="4.556754"><time>2026-05-08T04:49:47Z</time></trkpt>
<trkpt lat="50.711392" lon="4.556903"><time>2026-05-08T04:59:47Z</time></trkpt>
<trkpt lat="50.711399" lon="4.558192"><time>2026-05-08T05:09:47Z</time></trkpt>
<trkpt lat="50.711317" lon="4.559098"><time>2026-05-08T05:19:47Z</time></trkpt>
<trkpt lat="50.711164" lon="4.559239"><time>2026-05-08T05:29:47Z</time></trkpt>
<trkpt lat="50.711200" lon="4.559253"><time>2026-05-08T05:39:47Z</time></trkpt>
<trkpt lat="50.711236" lon="4.559267"><time>2026-05-08T05:49:47Z</time></trkpt>
<trkpt lat="50.711307" lon="4.559381"><time>2026-05-08T05:59:47Z</time></trkpt>
<trkpt lat="50.711325" lon="4.559452"><time>2026-05-08T06:09:47Z</time></trkpt>
<trkpt lat="50.711334" lon="4.559523"><time>2026-05-08T06:19:47Z</time></trkpt>
<trkpt lat="50.711316" lon="4.559593"><time>2026-05-08T06:29:47Z</time></trkpt>
<trkpt lat="50.711289" lon="4.559678"><time>2026-05-08T06:39:47Z</time></trkpt>
<trkpt lat="50.711271" lon="4.559777"><time>2026-05-08T06:49:47Z</time></trkpt>
<trkpt lat="50.711271" lon="4.559862"><time>2026-05-08T06:59:47Z</time></trkpt>
<trkpt lat="50.711271" lon="4.559919"><time>2026-05-08T07:09:47Z</time></trkpt>
<trkpt lat="50.711315" lon="4.560018"><time>2026-05-08T07:19:47Z</time></trkpt>
<trkpt lat="50.711342" lon="4.560089"><time>2026-05-08T07:29:47Z</time></trkpt>
<trkpt lat="50.711360" lon="4.560131"><time>2026-05-08T07:39:47Z</time></trkpt>
<trkpt lat="50.711369" lon="4.560216"><time>2026-05-08T07:49:47Z</time></trkpt>
<trkpt lat="50.711351" lon="4.560301"><time>2026-05-08T07:59:47Z</time></trkpt>
<trkpt lat="50.711279" lon="4.560485"><time>2026-05-08T08:09:47Z</time></trkpt>
<trkpt lat="50.711260" lon="4.560584"><time>2026-05-08T08:19:47Z</time></trkpt>
<trkpt lat="50.711259" lon="4.561150"><time>2026-05-08T08:29:47Z</time></trkpt>
<trkpt lat="50.711250" lon="4.561419"><time>2026-05-08T08:39:47Z</time></trkpt>
<trkpt lat="50.711268" lon="4.561575"><time>2026-05-08T08:49:47Z</time></trkpt>
<trkpt lat="50.711286" lon="4.561674"><time>2026-05-08T08:59:47Z</time></trkpt>
<trkpt lat="50.711294" lon="4.561830"><time>2026-05-08T09:09:47Z</time></trkpt>
<trkpt lat="50.711312" lon="4.561901"><time>2026-05-08T09:19:47Z</time></trkpt>
<trkpt lat="50.711357" lon="4.562000"><time>2026-05-08T09:29:47Z</time></trkpt>
<trkpt lat="50.711366" lon="4.562071"><time>2026-05-08T09:39:47Z</time></trkpt>
<trkpt lat="50.711365" lon="4.562298"><time>2026-05-08T09:49:47Z</time></trkpt>
<trkpt lat="50.711356" lon="4.562538"><time>2026-05-08T09:59:47Z</time></trkpt>
<trkpt lat="50.711338" lon="4.562765"><time>2026-05-08T10:09:47Z</time></trkpt>
<trkpt lat="50.711329" lon="4.562836"><time>2026-05-08T10:19:47Z</time></trkpt>
<trkpt lat="50.711929" lon="4.563702"><time>2026-05-08T10:29:47Z</time></trkpt>
<trkpt lat="50.711974" lon="4.563744"><time>2026-05-08T10:39:47Z</time></trkpt>
<trkpt lat="50.712244" lon="4.563746"><time>2026-05-08T10:49:47Z</time></trkpt>
</trkseg>
</trk>
<trk>
<name>bwvlmi12</name>
<cmt>v</cmt>
<desc>Limal Sentier n°i12 </desc>
<link href="https://chemins.be/limal/sentier/i12"/><trkseg>
<trkpt lat="50.708187" lon="4.554611"><time>2026-05-08T03:59:47Z</time></trkpt>
<trkpt lat="50.708401" lon="4.555263"><time>2026-05-08T04:09:47Z</time></trkpt>
<trkpt lat="50.708482" lon="4.555419"><time>2026-05-08T04:19:47Z</time></trkpt>
<trkpt lat="50.708581" lon="4.555561"><time>2026-05-08T04:29:47Z</time></trkpt>
<trkpt lat="50.708634" lon="4.555760"><time>2026-05-08T04:39:47Z</time></trkpt>
<trkpt lat="50.708643" lon="4.555788"><time>2026-05-08T04:49:47Z</time></trkpt>
<trkpt lat="50.708813" lon="4.556313"><time>2026-05-08T04:59:47Z</time></trkpt>
<trkpt lat="50.708831" lon="4.556383"><time>2026-05-08T05:09:47Z</time></trkpt>
<trkpt lat="50.708867" lon="4.556624"><time>2026-05-08T05:19:47Z</time></trkpt>
<trkpt lat="50.708867" lon="4.556653"><time>2026-05-08T05:29:47Z</time></trkpt>
<trkpt lat="50.708893" lon="4.556837"><time>2026-05-08T05:39:47Z</time></trkpt>
<trkpt lat="50.708956" lon="4.556964"><time>2026-05-08T05:49:47Z</time></trkpt>
<trkpt lat="50.708983" lon="4.557007"><time>2026-05-08T05:59:47Z</time></trkpt>
<trkpt lat="50.709073" lon="4.557149"><time>2026-05-08T06:09:47Z</time></trkpt>
<trkpt lat="50.709189" lon="4.557404"><time>2026-05-08T06:19:47Z</time></trkpt>
<trkpt lat="50.709332" lon="4.557858"><time>2026-05-08T06:29:47Z</time></trkpt>
<trkpt lat="50.709430" lon="4.558156"><time>2026-05-08T06:39:47Z</time></trkpt>
<trkpt lat="50.709475" lon="4.558326"><time>2026-05-08T06:49:47Z</time></trkpt>
<trkpt lat="50.709340" lon="4.558396"><time>2026-05-08T06:59:47Z</time></trkpt>
<trkpt lat="50.709304" lon="4.558566"><time>2026-05-08T07:09:47Z</time></trkpt>
<trkpt lat="50.709304" lon="4.558693"><time>2026-05-08T07:19:47Z</time></trkpt>
<trkpt lat="50.709420" lon="4.558821"><time>2026-05-08T07:29:47Z</time></trkpt>
<trkpt lat="50.709402" lon="4.558948"><time>2026-05-08T07:39:47Z</time></trkpt>
<trkpt lat="50.709168" lon="4.559202"><time>2026-05-08T07:49:47Z</time></trkpt>
<trkpt lat="50.709042" lon="4.559471"><time>2026-05-08T07:59:47Z</time></trkpt>
<trkpt lat="50.709436" lon="4.560350"><time>2026-05-08T08:09:47Z</time></trkpt>
<trkpt lat="50.709562" lon="4.560393"><time>2026-05-08T08:19:47Z</time></trkpt>
<trkpt lat="50.709759" lon="4.560805"><time>2026-05-08T08:29:47Z</time></trkpt>
</trkseg>
</trk>
<trk>
<name>bwvlmi13</name>
<cmt>q</cmt>
<desc>Limal Chemin n°i13 Chemin du Pirroy / Chemin des Crisnaires</desc>
<link href="https://chemins.be/limal/chemin/i13"/><trkseg>
<trkpt lat="50.696969" lon="4.597082"><time>2026-05-08T03:59:47Z</time></trkpt>
<trkpt lat="50.696599" lon="4.597537"><time>2026-05-08T04:09:47Z</time></trkpt>
<trkpt lat="50.695761" lon="4.597562"><time>2026-05-08T04:19:47Z</time></trkpt>
<trkpt lat="50.695536" lon="4.597977"><time>2026-05-08T04:29:47Z</time></trkpt>
<trkpt lat="50.695436" lon="4.598198"><time>2026-05-08T04:39:47Z</time></trkpt>
<trkpt lat="50.694500" lon="4.598369"><time>2026-05-08T04:49:47Z</time></trkpt>
<trkpt lat="50.694310" lon="4.599013"><time>2026-05-08T04:59:47Z</time></trkpt>
</trkseg>
</trk>
<trk>
<name>bwvlmi14</name>
<cmt>v</cmt>
<desc>Limal Sentier n°i14 Clos du Barivaux</desc>
<link href="https://chemins.be/limal/sentier/i14"/><trkseg>
<trkpt lat="50.694753" lon="4.561536"><time>2026-05-08T03:59:47Z</time></trkpt>
<trkpt lat="50.694539" lon="4.560870"><time>2026-05-08T04:09:47Z</time></trkpt>
<trkpt lat="50.694521" lon="4.560756"><time>2026-05-08T04:19:47Z</time></trkpt>
<trkpt lat="50.694486" lon="4.560134"><time>2026-05-08T04:29:47Z</time></trkpt>
</trkseg>
</trk>
<trk>
<name>bwvlmi15</name>
<cmt>v</cmt>
<desc>Limal Sentier n°i15 </desc>
<link href="https://chemins.be/limal/sentier/i15"/><trkseg>
<trkpt lat="50.707859" lon="4.557087"><time>2026-05-08T03:59:47Z</time></trkpt>
<trkpt lat="50.708417" lon="4.556580"><time>2026-05-08T04:09:47Z</time></trkpt>
<trkpt lat="50.708831" lon="4.556383"><time>2026-05-08T04:19:47Z</time></trkpt>
</trkseg>
</trk>
<trk>
<name>bwvlmi16</name>
<cmt>v</cmt>
<desc>Limal Chemin n°i16 Chemin du Seucha</desc>
<link href="https://chemins.be/limal/chemin/i16"/><trkseg>
<trkpt lat="50.698117" lon="4.549546"><time>2026-05-08T03:59:47Z</time></trkpt>
<trkpt lat="50.698717" lon="4.550879"><time>2026-05-08T04:09:47Z</time></trkpt>
<trkpt lat="50.698931" lon="4.552041"><time>2026-05-08T04:19:47Z</time></trkpt>
<trkpt lat="50.699118" lon="4.553231"><time>2026-05-08T04:29:47Z</time></trkpt>
<trkpt lat="50.699395" lon="4.554279"><time>2026-05-08T04:39:47Z</time></trkpt>
</trkseg>
</trk>
<trk>
<name>bwvlmi17</name>
<cmt>v</cmt>
<desc>Limal Sentier n°i17 </desc>
<link href="https://chemins.be/limal/sentier/i17"/><trkseg>
<trkpt lat="50.698259" lon="4.556171"><time>2026-05-08T03:59:47Z</time></trkpt>
<trkpt lat="50.698871" lon="4.555905"><time>2026-05-08T04:09:47Z</time></trkpt>
</trkseg>
</trk>
<trk>
<name>bwvlmi18</name>
<cmt>v</cmt>
<desc>Limal Sentier n°i18 </desc>
<link href="https://chemins.be/limal/sentier/i18"/><trkseg>
<trkpt lat="50.710674" lon="4.562125"><time>2026-05-08T03:59:47Z</time></trkpt>
<trkpt lat="50.711032" lon="4.562565"><time>2026-05-08T04:09:47Z</time></trkpt>
<trkpt lat="50.711347" lon="4.562538"><time>2026-05-08T04:19:47Z</time></trkpt>
<trkpt lat="50.711779" lon="4.562568"><time>2026-05-08T04:29:47Z</time></trkpt>
</trkseg>
</trk>
<trk>
<name>bwvlmi19</name>
<cmt>s</cmt>
<desc>Limal Chemin n°i19 </desc>
<link href="https://chemins.be/limal/chemin/i19"/><trkseg>
<trkpt lat="50.690599" lon="4.562328"><time>2026-05-08T03:59:47Z</time></trkpt>
<trkpt lat="50.690565" lon="4.555348"><time>2026-05-08T04:09:47Z</time></trkpt>
<trkpt lat="50.690630" lon="4.554301"><time>2026-05-08T04:19:47Z</time></trkpt>
<trkpt lat="50.690811" lon="4.553255"><time>2026-05-08T04:29:47Z</time></trkpt>
<trkpt lat="50.690956" lon="4.552420"><time>2026-05-08T04:39:47Z</time></trkpt>
</trkseg>
</trk>
<trk>
<name>bwvlmi2</name>
<cmt>v</cmt>
<desc>Limal Sentier n°i2 Scavée du Cantonnier</desc>
<link href="https://chemins.be/limal/sentier/i2"/><trkseg>
<trkpt lat="50.691591" lon="4.580954"><time>2026-05-08T03:59:47Z</time></trkpt>
<trkpt lat="50.691853" lon="4.580588"><time>2026-05-08T04:09:47Z</time></trkpt>
<trkpt lat="50.691575" lon="4.580103"><time>2026-05-08T04:19:47Z</time></trkpt>
<trkpt lat="50.691658" lon="4.579869"><time>2026-05-08T04:29:47Z</time></trkpt>
<trkpt lat="50.691576" lon="4.579652"><time>2026-05-08T04:39:47Z</time></trkpt>
</trkseg>
</trk>
<trk>
<name>bwvlmi20</name>
<cmt>s</cmt>
<desc>Limal Chemin n°i20 </desc>
<link href="https://chemins.be/limal/chemin/i20"/><trkseg>
<trkpt lat="50.702921" lon="4.574578"><time>2026-05-08T03:59:47Z</time></trkpt>
<trkpt lat="50.702902" lon="4.574469"><time>2026-05-08T04:09:47Z</time></trkpt>
<trkpt lat="50.702772" lon="4.573974"><time>2026-05-08T04:19:47Z</time></trkpt>
<trkpt lat="50.702585" lon="4.573302"><time>2026-05-08T04:29:47Z</time></trkpt>
<trkpt lat="50.702411" lon="4.572819"><time>2026-05-08T04:39:47Z</time></trkpt>
<trkpt lat="50.702361" lon="4.572645"><time>2026-05-08T04:49:47Z</time></trkpt>
<trkpt lat="50.702316" lon="4.572444"><time>2026-05-08T04:59:47Z</time></trkpt>
<trkpt lat="50.702309" lon="4.572229"><time>2026-05-08T05:09:47Z</time></trkpt>
<trkpt lat="50.702328" lon="4.572063"><time>2026-05-08T05:19:47Z</time></trkpt>
<trkpt lat="50.702373" lon="4.571887"><time>2026-05-08T05:29:47Z</time></trkpt>
<trkpt lat="50.702634" lon="4.571311"><time>2026-05-08T05:39:47Z</time></trkpt>
<trkpt lat="50.702925" lon="4.570666"><time>2026-05-08T05:49:47Z</time></trkpt>
<trkpt lat="50.703082" lon="4.570134"><time>2026-05-08T05:59:47Z</time></trkpt>
<trkpt lat="50.703190" lon="4.569732"><time>2026-05-08T06:09:47Z</time></trkpt>
<trkpt lat="50.703357" lon="4.569055"><time>2026-05-08T06:19:47Z</time></trkpt>
<trkpt lat="50.703450" lon="4.568887"><time>2026-05-08T06:29:47Z</time></trkpt>
<trkpt lat="50.703584" lon="4.568734"><time>2026-05-08T06:39:47Z</time></trkpt>
<trkpt lat="50.703705" lon="4.568628"><time>2026-05-08T06:49:47Z</time></trkpt>
<trkpt lat="50.703839" lon="4.568580"><time>2026-05-08T06:59:47Z</time></trkpt>
<trkpt lat="50.704187" lon="4.568487"><time>2026-05-08T07:09:47Z</time></trkpt>
<trkpt lat="50.704494" lon="4.568408"><time>2026-05-08T07:19:47Z</time></trkpt>
<trkpt lat="50.704968" lon="4.568256"><time>2026-05-08T07:29:47Z</time></trkpt>
<trkpt lat="50.705179" lon="4.568145"><time>2026-05-08T07:39:47Z</time></trkpt>
<trkpt lat="50.705458" lon="4.567903"><time>2026-05-08T07:49:47Z</time></trkpt>
<trkpt lat="50.705621" lon="4.567732"><time>2026-05-08T07:59:47Z</time></trkpt>
<trkpt lat="50.705655" lon="4.567677"><time>2026-05-08T08:09:47Z</time></trkpt>
<trkpt lat="50.705673" lon="4.567537"><time>2026-05-08T08:19:47Z</time></trkpt>
<trkpt lat="50.705703" lon="4.567379"><time>2026-05-08T08:29:47Z</time></trkpt>
<trkpt lat="50.705736" lon="4.567296"><time>2026-05-08T08:39:47Z</time></trkpt>
<trkpt lat="50.705783" lon="4.567213"><time>2026-05-08T08:49:47Z</time></trkpt>
<trkpt lat="50.706030" lon="4.566999"><time>2026-05-08T08:59:47Z</time></trkpt>
</trkseg>
</trk>
<trk>
<name>bwvlmi21</name>
<cmt>v</cmt>
<desc>Limal Chemin n°i21 </desc>
<link href="https://chemins.be/limal/chemin/i21"/><trkseg>
<trkpt lat="50.709297" lon="4.561407"><time>2026-05-08T03:59:47Z</time></trkpt>
<trkpt lat="50.708650" lon="4.562059"><time>2026-05-08T04:09:47Z</time></trkpt>
</trkseg>
</trk>
<trk>
<name>bwvlmi22</name>
<cmt>v</cmt>
<desc>Limal Chemin n°i22 Chemin des Crisnaires</desc>
<link href="https://chemins.be/limal/chemin/i22"/><trkseg>
<trkpt lat="50.694153" lon="4.599056"><time>2026-05-08T03:59:47Z</time></trkpt>
<trkpt lat="50.693489" lon="4.600347"><time>2026-05-08T04:09:47Z</time></trkpt>
<trkpt lat="50.693039" lon="4.601341"><time>2026-05-08T04:19:47Z</time></trkpt>
<trkpt lat="50.692883" lon="4.601524"><time>2026-05-08T04:29:47Z</time></trkpt>
</trkseg>
</trk>
<trk>
<name>bwvlmi23</name>
<cmt>r</cmt>
<desc>Limal Chemin n°i23 Champ des Fontaines</desc>
<link href="https://chemins.be/limal/chemin/i23"/><trkseg>
<trkpt lat="50.699748" lon="4.566117"><time>2026-05-08T03:59:47Z</time></trkpt>
<trkpt lat="50.699880" lon="4.566119"><time>2026-05-08T04:09:47Z</time></trkpt>
<trkpt lat="50.700473" lon="4.565798"><time>2026-05-08T04:19:47Z</time></trkpt>
</trkseg>
</trk>
<trk>
<name>bwvlmi24</name>
<cmt>v</cmt>
<desc>Limal Sentier n°i24 </desc>
<link href="https://chemins.be/limal/sentier/i24"/><trkseg>
<trkpt lat="50.692938" lon="4.573552"><time>2026-05-08T03:59:47Z</time></trkpt>
<trkpt lat="50.692877" lon="4.573845"><time>2026-05-08T04:09:47Z</time></trkpt>
<trkpt lat="50.692994" lon="4.574311"><time>2026-05-08T04:19:47Z</time></trkpt>
<trkpt lat="50.692994" lon="4.574446"><time>2026-05-08T04:29:47Z</time></trkpt>
</trkseg>
</trk>
<trk>
<name>bwvlmi25</name>
<cmt>v</cmt>
<desc>Limal Sentier n°i25 </desc>
<link href="https://chemins.be/limal/sentier/i25"/><trkseg>
<trkpt lat="50.701494" lon="4.561602"><time>2026-05-08T03:59:47Z</time></trkpt>
<trkpt lat="50.701281" lon="4.561076"><time>2026-05-08T04:09:47Z</time></trkpt>
</trkseg>
</trk>
<trk>
<name>bwvlmi26</name>
<cmt>v</cmt>
<desc>Limal Sentier n°i26 </desc>
<link href="https://chemins.be/limal/sentier/i26"/><trkseg>
<trkpt lat="50.692918" lon="4.573663"><time>2026-05-08T03:59:47Z</time></trkpt>
<trkpt lat="50.692422" lon="4.574006"><time>2026-05-08T04:09:47Z</time></trkpt>
</trkseg>
</trk>
<trk>
<name>bwvlmi27</name>
<cmt>v</cmt>
<desc>Limal Sentier n°i27 </desc>
<link href="https://chemins.be/limal/sentier/i27"/><trkseg>
<trkpt lat="50.701873" lon="4.546411"><time>2026-05-08T03:59:47Z</time></trkpt>
<trkpt lat="50.701737" lon="4.545961"><time>2026-05-08T04:09:47Z</time></trkpt>
</trkseg>
</trk>
<trk>
<name>bwvlmi28</name>
<cmt>v</cmt>
<desc>Limal Sentier n°i28 </desc>
<link href="https://chemins.be/limal/sentier/i28"/><trkseg>
<trkpt lat="50.694453" lon="4.552216"><time>2026-05-08T03:59:47Z</time></trkpt>
<trkpt lat="50.694592" lon="4.552577"><time>2026-05-08T04:09:47Z</time></trkpt>
</trkseg>
</trk>
<trk>
<name>bwvlmi29</name>
<cmt>v</cmt>
<desc>Limal Sentier n°i29 </desc>
<link href="https://chemins.be/limal/sentier/i29"/><trkseg>
<trkpt lat="50.708341" lon="4.555963"><time>2026-05-08T03:59:47Z</time></trkpt>
<trkpt lat="50.708430" lon="4.555947"><time>2026-05-08T04:09:47Z</time></trkpt>
<trkpt lat="50.708627" lon="4.555793"><time>2026-05-08T04:19:47Z</time></trkpt>
</trkseg>
</trk>
<trk>
<name>bwvlmi3</name>
<cmt>s</cmt>
<desc>Limal Chemin n°i3 Clos du Manoir</desc>
<link href="https://chemins.be/limal/chemin/i3"/><trkseg>
<trkpt lat="50.694483" lon="4.551118"><time>2026-05-08T03:59:47Z</time></trkpt>
<trkpt lat="50.694105" lon="4.551031"><time>2026-05-08T04:09:47Z</time></trkpt>
<trkpt lat="50.694007" lon="4.550649"><time>2026-05-08T04:19:47Z</time></trkpt>
<trkpt lat="50.693737" lon="4.550421"><time>2026-05-08T04:29:47Z</time></trkpt>
<trkpt lat="50.693423" lon="4.550448"><time>2026-05-08T04:39:47Z</time></trkpt>
<trkpt lat="50.692964" lon="4.550843"><time>2026-05-08T04:49:47Z</time></trkpt>
<trkpt lat="50.692072" lon="4.551717"><time>2026-05-08T04:59:47Z</time></trkpt>
</trkseg>
</trk>
<trk>
<name>bwvlmi30</name>
<cmt>v</cmt>
<desc>Limal Sentier n°i30 </desc>
<link href="https://chemins.be/limal/sentier/i30"/><trkseg>
<trkpt lat="50.708807" lon="4.555612"><time>2026-05-08T03:59:47Z</time></trkpt>
<trkpt lat="50.708726" lon="4.555605"><time>2026-05-08T04:09:47Z</time></trkpt>
<trkpt lat="50.708621" lon="4.555689"><time>2026-05-08T04:19:47Z</time></trkpt>
</trkseg>
</trk>
<trk>
<name>bwvlmi31</name>
<cmt>v</cmt>
<desc>Limal Chemin n°i31 </desc>
<link href="https://chemins.be/limal/chemin/i31"/><trkseg>
<trkpt lat="50.708570" lon="4.557080"><time>2026-05-08T03:59:47Z</time></trkpt>
<trkpt lat="50.708908" lon="4.556808"><time>2026-05-08T04:09:47Z</time></trkpt>
</trkseg>
</trk>
<trk>
<name>bwvlmi32</name>
<cmt>v</cmt>
<desc>Limal Sentier n°i32 </desc>
<link href="https://chemins.be/limal/sentier/i32"/><trkseg>
<trkpt lat="50.711716" lon="4.557406"><time>2026-05-08T03:59:47Z</time></trkpt>
<trkpt lat="50.711435" lon="4.556919"><time>2026-05-08T04:09:47Z</time></trkpt>
</trkseg>
</trk>
<trk>
<name>bwvlmi33</name>
<cmt>v</cmt>
<desc>Limal Sentier n°i33 </desc>
<link href="https://chemins.be/limal/sentier/i33"/><trkseg>
<trkpt lat="50.711648" lon="4.560127"><time>2026-05-08T03:59:47Z</time></trkpt>
<trkpt lat="50.711376" lon="4.560142"><time>2026-05-08T04:09:47Z</time></trkpt>
</trkseg>
</trk>
<trk>
<name>bwvlmi34</name>
<cmt>v</cmt>
<desc>Limal Chemin n°i34 </desc>
<link href="https://chemins.be/limal/chemin/i34"/><trkseg>
<trkpt lat="50.710948" lon="4.559984"><time>2026-05-08T03:59:47Z</time></trkpt>
<trkpt lat="50.711301" lon="4.559898"><time>2026-05-08T04:09:47Z</time></trkpt>
</trkseg>
</trk>
<trk>
<name>bwvlmi35</name>
<cmt>v</cmt>
<desc>Limal Sentier n°i35 </desc>
<link href="https://chemins.be/limal/sentier/i35"/><trkseg>
<trkpt lat="50.711711" lon="4.558965"><time>2026-05-08T03:59:47Z</time></trkpt>
<trkpt lat="50.711501" lon="4.559119"><time>2026-05-08T04:09:47Z</time></trkpt>
<trkpt lat="50.711339" lon="4.559080"><time>2026-05-08T04:19:47Z</time></trkpt>
<trkpt lat="50.711194" lon="4.558880"><time>2026-05-08T04:29:47Z</time></trkpt>
<trkpt lat="50.710899" lon="4.558796"><time>2026-05-08T04:39:47Z</time></trkpt>
</trkseg>
</trk>
<trk>
<name>bwvlmi36</name>
<cmt>v</cmt>
<desc>Limal Sentier n°i36 </desc>
<link href="https://chemins.be/limal/sentier/i36"/><trkseg>
<trkpt lat="50.711575" lon="4.561279"><time>2026-05-08T03:59:47Z</time></trkpt>
<trkpt lat="50.711487" lon="4.561418"><time>2026-05-08T04:09:47Z</time></trkpt>
<trkpt lat="50.711281" lon="4.561415"><time>2026-05-08T04:19:47Z</time></trkpt>
</trkseg>
</trk>
<trk>
<name>bwvlmi37</name>
<cmt>v</cmt>
<desc>Limal Chemin n°i37 </desc>
<link href="https://chemins.be/limal/chemin/i37"/><trkseg>
<trkpt lat="50.710808" lon="4.561168"><time>2026-05-08T03:59:47Z</time></trkpt>
<trkpt lat="50.710887" lon="4.560968"><time>2026-05-08T04:09:47Z</time></trkpt>
<trkpt lat="50.711281" lon="4.560978"><time>2026-05-08T04:19:47Z</time></trkpt>
</trkseg>
</trk>
<trk>
<name>bwvlmi38</name>
<cmt>v</cmt>
<desc>Limal Sentier n°i38 </desc>
<link href="https://chemins.be/limal/sentier/i38"/><trkseg>
<trkpt lat="50.711021" lon="4.563235"><time>2026-05-08T03:59:47Z</time></trkpt>
<trkpt lat="50.711333" lon="4.562827"><time>2026-05-08T04:09:47Z</time></trkpt>
</trkseg>
</trk>
<trk>
<name>bwvlmi39</name>
<cmt>v</cmt>
<desc>Limal Chemin n°i39 </desc>
<link href="https://chemins.be/limal/chemin/i39"/><trkseg>
<trkpt lat="50.713765" lon="4.558567"><time>2026-05-08T03:59:47Z</time></trkpt>
<trkpt lat="50.713928" lon="4.558180"><time>2026-05-08T04:09:47Z</time></trkpt>
<trkpt lat="50.713874" lon="4.557691"><time>2026-05-08T04:19:47Z</time></trkpt>
<trkpt lat="50.714130" lon="4.557262"><time>2026-05-08T04:29:47Z</time></trkpt>
<trkpt lat="50.714066" lon="4.556773"><time>2026-05-08T04:39:47Z</time></trkpt>
<trkpt lat="50.713546" lon="4.556494"><time>2026-05-08T04:49:47Z</time></trkpt>
<trkpt lat="50.713374" lon="4.555893"><time>2026-05-08T04:59:47Z</time></trkpt>
<trkpt lat="50.713894" lon="4.554834"><time>2026-05-08T05:09:47Z</time></trkpt>
<trkpt lat="50.715122" lon="4.554605"><time>2026-05-08T05:19:47Z</time></trkpt>
<trkpt lat="50.716970" lon="4.556050"><time>2026-05-08T05:29:47Z</time></trkpt>
<trkpt lat="50.717512" lon="4.557917"><time>2026-05-08T05:39:47Z</time></trkpt>
<trkpt lat="50.717491" lon="4.558707"><time>2026-05-08T05:49:47Z</time></trkpt>
</trkseg>
</trk>
<trk>
<name>bwvlmi4</name>
<cmt>r</cmt>
<desc>Limal Sentier n°i4 Avenue de la Sablière</desc>
<link href="https://chemins.be/limal/sentier/i4"/><trkseg>
<trkpt lat="50.694608" lon="4.551260"><time>2026-05-08T03:59:47Z</time></trkpt>
<trkpt lat="50.694789" lon="4.550779"><time>2026-05-08T04:09:47Z</time></trkpt>
<trkpt lat="50.694646" lon="4.550227"><time>2026-05-08T04:19:47Z</time></trkpt>
<trkpt lat="50.694799" lon="4.549873"><time>2026-05-08T04:29:47Z</time></trkpt>
<trkpt lat="50.695186" lon="4.549677"><time>2026-05-08T04:39:47Z</time></trkpt>
</trkseg></trk>
<trk>
<name>bwvlmi4</name>
<cmt>v</cmt>
<desc>Limal Sentier n°i4 Avenue de la Sablière</desc>
<link href="https://chemins.be/limal/sentier/i4"/><trkseg>
<trkpt lat="50.695186" lon="4.549677"><time>2026-05-08T04:39:47Z</time></trkpt>
<trkpt lat="50.695070" lon="4.548969"><time>2026-05-08T04:49:47Z</time></trkpt>
</trkseg>
</trk>
<trk>
<name>bwvlmi40</name>
<cmt>v</cmt>
<desc>Limal Sentier n°i40 </desc>
<link href="https://chemins.be/limal/sentier/i40"/><trkseg>
<trkpt lat="50.710893" lon="4.556766"><time>2026-05-08T03:59:47Z</time></trkpt>
<trkpt lat="50.711214" lon="4.556622"><time>2026-05-08T04:09:47Z</time></trkpt>
</trkseg>
</trk>
<trk>
<name>bwvlmi41</name>
<cmt>v</cmt>
<desc>Limal Sentier n°i41 </desc>
<link href="https://chemins.be/limal/sentier/i41"/><trkseg>
<trkpt lat="50.710621" lon="4.557166"><time>2026-05-08T03:59:47Z</time></trkpt>
<trkpt lat="50.710617" lon="4.557753"><time>2026-05-08T04:09:47Z</time></trkpt>
<trkpt lat="50.710646" lon="4.557862"><time>2026-05-08T04:19:47Z</time></trkpt>
<trkpt lat="50.710741" lon="4.557935"><time>2026-05-08T04:29:47Z</time></trkpt>
</trkseg>
</trk>
<trk>
<name>bwvlmi42</name>
<cmt>v</cmt>
<desc>Limal Sentier n°i42 </desc>
<link href="https://chemins.be/limal/sentier/i42"/><trkseg>
<trkpt lat="50.710612" lon="4.557763"><time>2026-05-08T03:59:47Z</time></trkpt>
<trkpt lat="50.710409" lon="4.557746"><time>2026-05-08T04:09:47Z</time></trkpt>
<trkpt lat="50.710136" lon="4.557742"><time>2026-05-08T04:19:47Z</time></trkpt>
<trkpt lat="50.709489" lon="4.558300"><time>2026-05-08T04:29:47Z</time></trkpt>
</trkseg>
</trk>
<trk>
<name>bwvlmi43</name>
<cmt>v</cmt>
<desc>Limal Sentier n°i43 </desc>
<link href="https://chemins.be/limal/sentier/i43"/><trkseg>
<trkpt lat="50.709790" lon="4.557767"><time>2026-05-08T03:59:47Z</time></trkpt>
<trkpt lat="50.709823" lon="4.558003"><time>2026-05-08T04:09:47Z</time></trkpt>
</trkseg>
</trk>
<trk>
<name>bwvlmi44</name>
<cmt>v</cmt>
<desc>Limal Sentier n°i44 </desc>
<link href="https://chemins.be/limal/sentier/i44"/><trkseg>
<trkpt lat="50.709785" lon="4.559119"><time>2026-05-08T03:59:47Z</time></trkpt>
<trkpt lat="50.709552" lon="4.558783"><time>2026-05-08T04:09:47Z</time></trkpt>
</trkseg>
</trk>
<trk>
<name>bwvlmi45</name>
<cmt>v</cmt>
<desc>Limal Sentier n°i45 </desc>
<link href="https://chemins.be/limal/sentier/i45"/><trkseg>
<trkpt lat="50.709457" lon="4.558840"><time>2026-05-08T03:59:47Z</time></trkpt>
<trkpt lat="50.709638" lon="4.558654"><time>2026-05-08T04:09:47Z</time></trkpt>
<trkpt lat="50.710266" lon="4.558697"><time>2026-05-08T04:19:47Z</time></trkpt>
<trkpt lat="50.710407" lon="4.558346"><time>2026-05-08T04:29:47Z</time></trkpt>
<trkpt lat="50.710410" lon="4.557767"><time>2026-05-08T04:39:47Z</time></trkpt>
</trkseg>
</trk>
<trk>
<name>bwvlmi46</name>
<cmt>v</cmt>
<desc>Limal Sentier n°i46 </desc>
<link href="https://chemins.be/limal/sentier/i46"/><trkseg>
<trkpt lat="50.708545" lon="4.559133"><time>2026-05-08T03:59:47Z</time></trkpt>
<trkpt lat="50.709088" lon="4.558643"><time>2026-05-08T04:09:47Z</time></trkpt>
<trkpt lat="50.709292" lon="4.558690"><time>2026-05-08T04:19:47Z</time></trkpt>
</trkseg>
</trk>
<trk>
<name>bwvlmi47</name>
<cmt>v</cmt>
<desc>Limal Sentier n°i47 </desc>
<link href="https://chemins.be/limal/sentier/i47"/><trkseg>
<trkpt lat="50.708925" lon="4.558218"><time>2026-05-08T03:59:47Z</time></trkpt>
<trkpt lat="50.709102" lon="4.558640"><time>2026-05-08T04:09:47Z</time></trkpt>
</trkseg>
</trk>
<trk>
<name>bwvlmi48</name>
<cmt>v</cmt>
<desc>Limal Sentier n°i48 </desc>
<link href="https://chemins.be/limal/sentier/i48"/><trkseg>
<trkpt lat="50.710325" lon="4.559412"><time>2026-05-08T03:59:47Z</time></trkpt>
<trkpt lat="50.710923" lon="4.559373"><time>2026-05-08T04:09:47Z</time></trkpt>
<trkpt lat="50.711158" lon="4.559240"><time>2026-05-08T04:19:47Z</time></trkpt>
</trkseg>
</trk>
<trk>
<name>bwvlmi49</name>
<cmt>v</cmt>
<desc>Limal Sentier n°i49 </desc>
<link href="https://chemins.be/limal/sentier/i49"/><trkseg>
<trkpt lat="50.711251" lon="4.555278"><time>2026-05-08T03:59:47Z</time></trkpt>
<trkpt lat="50.711004" lon="4.555682"><time>2026-05-08T04:09:47Z</time></trkpt>
</trkseg>
</trk>
<trk>
<name>bwvlmi5</name>
<cmt>v</cmt>
<desc>Limal Sentier n°i5 </desc>
<link href="https://chemins.be/limal/sentier/i5"/><trkseg>
<trkpt lat="50.695711" lon="4.553062"><time>2026-05-08T03:59:47Z</time></trkpt>
<trkpt lat="50.696231" lon="4.554309"><time>2026-05-08T04:09:47Z</time></trkpt>
</trkseg>
</trk>
<trk>
<name>bwvlmi50</name>
<cmt>v</cmt>
<desc>Limal Sentier n°i50 </desc>
<link href="https://chemins.be/limal/sentier/i50"/><trkseg>
<trkpt lat="50.711464" lon="4.556301"><time>2026-05-08T03:59:47Z</time></trkpt>
<trkpt lat="50.711269" lon="4.556326"><time>2026-05-08T04:09:47Z</time></trkpt>
</trkseg>
</trk>
<trk>
<name>bwvlmi51</name>
<cmt>v</cmt>
<desc>Limal Sentier n°i51 </desc>
<link href="https://chemins.be/limal/sentier/i51"/><trkseg>
<trkpt lat="50.710615" lon="4.556061"><time>2026-05-08T03:59:47Z</time></trkpt>
<trkpt lat="50.710719" lon="4.555618"><time>2026-05-08T04:09:47Z</time></trkpt>
<trkpt lat="50.710880" lon="4.555517"><time>2026-05-08T04:19:47Z</time></trkpt>
</trkseg>
</trk>
<trk>
<name>bwvlmi52</name>
<cmt>v</cmt>
<desc>Limal Sentier n°i52 </desc>
<link href="https://chemins.be/limal/sentier/i52"/><trkseg>
<trkpt lat="50.710278" lon="4.554995"><time>2026-05-08T03:59:47Z</time></trkpt>
<trkpt lat="50.710377" lon="4.554992"><time>2026-05-08T04:09:47Z</time></trkpt>
<trkpt lat="50.710599" lon="4.554713"><time>2026-05-08T04:19:47Z</time></trkpt>
<trkpt lat="50.710878" lon="4.554334"><time>2026-05-08T04:29:47Z</time></trkpt>
</trkseg>
</trk>
<trk>
<name>bwvlmi53</name>
<cmt>v</cmt>
<desc>Limal Sentier n°i53 </desc>
<link href="https://chemins.be/limal/sentier/i53"/><trkseg>
<trkpt lat="50.710470" lon="4.553622"><time>2026-05-08T03:59:47Z</time></trkpt>
<trkpt lat="50.710257" lon="4.554101"><time>2026-05-08T04:09:47Z</time></trkpt>
</trkseg>
</trk>
<trk>
<name>bwvlmi54</name>
<cmt>v</cmt>
<desc>Limal Sentier n°i54 </desc>
<link href="https://chemins.be/limal/sentier/i54"/><trkseg>
<trkpt lat="50.709507" lon="4.554334"><time>2026-05-08T03:59:47Z</time></trkpt>
<trkpt lat="50.709832" lon="4.553934"><time>2026-05-08T04:09:47Z</time></trkpt>
<trkpt lat="50.710355" lon="4.553321"><time>2026-05-08T04:19:47Z</time></trkpt>
<trkpt lat="50.710712" lon="4.552903"><time>2026-05-08T04:29:47Z</time></trkpt>
<trkpt lat="50.711196" lon="4.552287"><time>2026-05-08T04:39:47Z</time></trkpt>
</trkseg></trk>
<trk>
<name>bwvlmi54</name>
<cmt>b</cmt>
<desc>Limal Sentier n°i54 </desc>
<link href="https://chemins.be/limal/sentier/i54"/><trkseg>
<trkpt lat="50.711196" lon="4.552287"><time>2026-05-08T04:39:47Z</time></trkpt>
<trkpt lat="50.711622" lon="4.551766"><time>2026-05-08T04:49:47Z</time></trkpt>
<trkpt lat="50.711672" lon="4.551950"><time>2026-05-08T04:59:47Z</time></trkpt>
</trkseg></trk>
<trk>
<name>bwvlmi54</name>
<cmt>q</cmt>
<desc>Limal Sentier n°i54 </desc>
<link href="https://chemins.be/limal/sentier/i54"/><trkseg>
<trkpt lat="50.711672" lon="4.551950"><time>2026-05-08T04:59:47Z</time></trkpt>
<trkpt lat="50.711839" lon="4.552809"><time>2026-05-08T05:09:47Z</time></trkpt>
</trkseg>
</trk>
<trk>
<name>bwvlmi55</name>
<cmt>v</cmt>
<desc>Limal Sentier n°i55 </desc>
<link href="https://chemins.be/limal/sentier/i55"/><trkseg>
<trkpt lat="50.710263" lon="4.559317"><time>2026-05-08T03:59:47Z</time></trkpt>
<trkpt lat="50.710236" lon="4.559144"><time>2026-05-08T04:09:47Z</time></trkpt>
<trkpt lat="50.710262" lon="4.558664"><time>2026-05-08T04:19:47Z</time></trkpt>
</trkseg>
</trk>
<trk>
<name>bwvlmi56</name>
<cmt>v</cmt>
<desc>Limal Sentier n°i56 </desc>
<link href="https://chemins.be/limal/sentier/i56"/><trkseg>
<trkpt lat="50.712860" lon="4.555113"><time>2026-05-08T03:59:47Z</time></trkpt>
<trkpt lat="50.712340" lon="4.555058"><time>2026-05-08T04:09:47Z</time></trkpt>
</trkseg>
</trk>
<trk>
<name>bwvlmi57</name>
<cmt>v</cmt>
<desc>Limal Sentier n°i57 </desc>
<link href="https://chemins.be/limal/sentier/i57"/><trkseg>
<trkpt lat="50.706177" lon="4.558061"><time>2026-05-08T03:59:47Z</time></trkpt>
<trkpt lat="50.706225" lon="4.558586"><time>2026-05-08T04:09:47Z</time></trkpt>
</trkseg>
</trk>
<trk>
<name>bwvlmi58</name>
<cmt>v</cmt>
<desc>Limal Sentier n°i58 Sentier des Crocus</desc>
<link href="https://chemins.be/limal/sentier/i58"/><trkseg>
<trkpt lat="50.705891" lon="4.548891"><time>2026-05-08T03:59:47Z</time></trkpt>
<trkpt lat="50.705631" lon="4.549215"><time>2026-05-08T04:09:47Z</time></trkpt>
</trkseg>
</trk>
<trk>
<name>bwvlmi59</name>
<cmt>v</cmt>
<desc>Limal Sentier n°i59 </desc>
<link href="https://chemins.be/limal/sentier/i59"/><trkseg>
<trkpt lat="50.713287" lon="4.557861"><time>2026-05-08T03:59:47Z</time></trkpt>
<trkpt lat="50.713806" lon="4.558590"><time>2026-05-08T04:09:47Z</time></trkpt>
<trkpt lat="50.713912" lon="4.558929"><time>2026-05-08T04:19:47Z</time></trkpt>
<trkpt lat="50.714075" lon="4.559105"><time>2026-05-08T04:29:47Z</time></trkpt>
<trkpt lat="50.714523" lon="4.559097"><time>2026-05-08T04:39:47Z</time></trkpt>
<trkpt lat="50.714842" lon="4.559631"><time>2026-05-08T04:49:47Z</time></trkpt>
<trkpt lat="50.714831" lon="4.560498"><time>2026-05-08T04:59:47Z</time></trkpt>
</trkseg>
</trk>
<trk>
<name>bwvlmi6</name>
<cmt>v</cmt>
<desc>Limal Sentier n°i6 </desc>
<link href="https://chemins.be/limal/sentier/i6"/><trkseg>
<trkpt lat="50.695978" lon="4.554804"><time>2026-05-08T03:59:47Z</time></trkpt>
<trkpt lat="50.696830" lon="4.556236"><time>2026-05-08T04:09:47Z</time></trkpt>
</trkseg>
</trk>
<trk>
<name>bwvlmi60</name>
<cmt>v</cmt>
<desc>Limal Chemin n°i60 </desc>
<link href="https://chemins.be/limal/chemin/i60"/><trkseg>
<trkpt lat="50.714094" lon="4.557229"><time>2026-05-08T03:59:47Z</time></trkpt>
<trkpt lat="50.714296" lon="4.557383"><time>2026-05-08T04:09:47Z</time></trkpt>
<trkpt lat="50.714515" lon="4.557765"><time>2026-05-08T04:19:47Z</time></trkpt>
</trkseg>
</trk>
<trk>
<name>bwvlmi61</name>
<cmt>v</cmt>
<desc>Limal Chemin n°i61 </desc>
<link href="https://chemins.be/limal/chemin/i61"/><trkseg>
<trkpt lat="50.710729" lon="4.558366"><time>2026-05-08T03:59:47Z</time></trkpt>
<trkpt lat="50.710414" lon="4.558347"><time>2026-05-08T04:09:47Z</time></trkpt>
</trkseg>
</trk>
<trk>
<name>bwvlmi62</name>
<cmt>v</cmt>
<desc>Limal Sentier n°i62 </desc>
<link href="https://chemins.be/limal/sentier/i62"/><trkseg>
<trkpt lat="50.694093" lon="4.599182"><time>2026-05-08T03:59:47Z</time></trkpt>
<trkpt lat="50.693196" lon="4.599087"><time>2026-05-08T04:09:47Z</time></trkpt>
<trkpt lat="50.692532" lon="4.599585"><time>2026-05-08T04:19:47Z</time></trkpt>
<trkpt lat="50.691978" lon="4.600443"><time>2026-05-08T04:29:47Z</time></trkpt>
<trkpt lat="50.691932" lon="4.600447"><time>2026-05-08T04:39:47Z</time></trkpt>
</trkseg></trk>
<trk>
<name>bwvlmi62</name>
<cmt>q</cmt>
<desc>Limal Sentier n°i62 </desc>
<link href="https://chemins.be/limal/sentier/i62"/><trkseg>
<trkpt lat="50.691932" lon="4.600447"><time>2026-05-08T04:39:47Z</time></trkpt>
<trkpt lat="50.691423" lon="4.599971"><time>2026-05-08T04:49:47Z</time></trkpt>
</trkseg></trk>
<trk>
<name>bwvlmi62</name>
<cmt>v</cmt>
<desc>Limal Sentier n°i62 </desc>
<link href="https://chemins.be/limal/sentier/i62"/><trkseg>
<trkpt lat="50.691423" lon="4.599971"><time>2026-05-08T04:49:47Z</time></trkpt>
<trkpt lat="50.691113" lon="4.600718"><time>2026-05-08T04:59:47Z</time></trkpt>
<trkpt lat="50.690640" lon="4.600126"><time>2026-05-08T05:09:47Z</time></trkpt>
<trkpt lat="50.690205" lon="4.599645"><time>2026-05-08T05:19:47Z</time></trkpt>
<trkpt lat="50.689931" lon="4.599657"><time>2026-05-08T05:29:47Z</time></trkpt>
<trkpt lat="50.689303" lon="4.598194"><time>2026-05-08T05:39:47Z</time></trkpt>
<trkpt lat="50.688813" lon="4.597096"><time>2026-05-08T05:49:47Z</time></trkpt>
</trkseg>
</trk>
<trk>
<name>bwvlmi63</name>
<cmt>d</cmt>
<desc>Limal Chemin n°i63 </desc>
<link href="https://chemins.be/limal/chemin/i63"/><trkseg>
<trkpt lat="50.691912" lon="4.600428"><time>2026-05-08T03:59:47Z</time></trkpt>
<trkpt lat="50.691520" lon="4.599837"><time>2026-05-08T04:09:47Z</time></trkpt>
<trkpt lat="50.691427" lon="4.599962"><time>2026-05-08T04:19:47Z</time></trkpt>
</trkseg>
</trk>
<trk>
<name>bwvlmi64</name>
<cmt>r</cmt>
<desc>Limal Chemin n°i64 Rue de la Station</desc>
<link href="https://chemins.be/limal/chemin/i64"/><trkseg>
<trkpt lat="50.690807" lon="4.574790"><time>2026-05-08T03:59:47Z</time></trkpt>
<trkpt lat="50.687219" lon="4.572177"><time>2026-05-08T04:09:47Z</time></trkpt>
</trkseg>
</trk>
<trk>
<name>bwvlmi65</name>
<cmt>v</cmt>
<desc>Limal Chemin n°i65 </desc>
<link href="https://chemins.be/limal/chemin/i65"/><trkseg>
<trkpt lat="50.703197" lon="4.558681"><time>2026-05-08T03:59:47Z</time></trkpt>
<trkpt lat="50.703010" lon="4.558901"><time>2026-05-08T04:09:47Z</time></trkpt>
<trkpt lat="50.703357" lon="4.559911"><time>2026-05-08T04:19:47Z</time></trkpt>
</trkseg>
</trk>
<trk>
<name>bwvlmi66</name>
<cmt>r</cmt>
<desc>Limal Sentier n°i66 </desc>
<link href="https://chemins.be/limal/sentier/i66"/><trkseg>
<trkpt lat="50.695200" lon="4.563100"><time>2026-05-08T03:59:48Z</time></trkpt>
<trkpt lat="50.695446" lon="4.563841"><time>2026-05-08T04:09:48Z</time></trkpt>
</trkseg></trk>
<trk>
<name>bwvlmi66</name>
<cmt>v</cmt>
<desc>Limal Sentier n°i66 </desc>
<link href="https://chemins.be/limal/sentier/i66"/><trkseg>
<trkpt lat="50.695446" lon="4.563841"><time>2026-05-08T04:09:48Z</time></trkpt>
<trkpt lat="50.695634" lon="4.564490"><time>2026-05-08T04:19:48Z</time></trkpt>
<trkpt lat="50.695594" lon="4.564514"><time>2026-05-08T04:29:48Z</time></trkpt>
</trkseg>
</trk>
<trk>
<name>bwvlmi67</name>
<cmt>v</cmt>
<desc>Limal Sentier n°i67 </desc>
<link href="https://chemins.be/limal/sentier/i67"/><trkseg>
<trkpt lat="50.695369" lon="4.564584"><time>2026-05-08T03:59:48Z</time></trkpt>
<trkpt lat="50.695460" lon="4.564596"><time>2026-05-08T04:09:48Z</time></trkpt>
<trkpt lat="50.695595" lon="4.564517"><time>2026-05-08T04:19:48Z</time></trkpt>
<trkpt lat="50.695722" lon="4.565007"><time>2026-05-08T04:29:48Z</time></trkpt>
<trkpt lat="50.695756" lon="4.565012"><time>2026-05-08T04:39:48Z</time></trkpt>
<trkpt lat="50.695905" lon="4.564926"><time>2026-05-08T04:49:48Z</time></trkpt>
<trkpt lat="50.696054" lon="4.565348"><time>2026-05-08T04:59:48Z</time></trkpt>
</trkseg>
</trk>
<trk>
<name>bwvlmi7</name>
<cmt>s</cmt>
<desc>Limal Sentier n°i7 </desc>
<link href="https://chemins.be/limal/sentier/i7"/><trkseg>
<trkpt lat="50.694282" lon="4.548782"><time>2026-05-08T03:59:48Z</time></trkpt>
<trkpt lat="50.694216" lon="4.548965"><time>2026-05-08T04:09:48Z</time></trkpt>
<trkpt lat="50.693838" lon="4.549332"><time>2026-05-08T04:19:48Z</time></trkpt>
<trkpt lat="50.693910" lon="4.549559"><time>2026-05-08T04:29:48Z</time></trkpt>
<trkpt lat="50.693864" lon="4.549827"><time>2026-05-08T04:39:48Z</time></trkpt>
<trkpt lat="50.694016" lon="4.550238"><time>2026-05-08T04:49:48Z</time></trkpt>
</trkseg>
</trk>
<trk>
<name>bwvlmi8</name>
<cmt>r</cmt>
<desc>Limal Chemin n°i8 Avenue Decuyper</desc>
<link href="https://chemins.be/limal/chemin/i8"/><trkseg>
<trkpt lat="50.694801" lon="4.548430"><time>2026-05-08T03:59:48Z</time></trkpt>
<trkpt lat="50.694613" lon="4.547919"><time>2026-05-08T04:09:48Z</time></trkpt>
<trkpt lat="50.694340" lon="4.544281"><time>2026-05-08T04:19:48Z</time></trkpt>
</trkseg>
</trk>
<trk>
<name>bwvlmi9</name>
<cmt>v</cmt>
<desc>Limal Sentier n°i9 </desc>
<link href="https://chemins.be/limal/sentier/i9"/><trkseg>
<trkpt lat="50.692580" lon="4.549030"><time>2026-05-08T03:59:48Z</time></trkpt>
<trkpt lat="50.692508" lon="4.549341"><time>2026-05-08T04:09:48Z</time></trkpt>
<trkpt lat="50.691994" lon="4.549778"><time>2026-05-08T04:19:48Z</time></trkpt>
</trkseg></trk>
<trk>
<name>bwvlmi9</name>
<cmt>q</cmt>
<desc>Limal Sentier n°i9 </desc>
<link href="https://chemins.be/limal/sentier/i9"/><trkseg>
<trkpt lat="50.691994" lon="4.549778"><time>2026-05-08T04:19:48Z</time></trkpt>
<trkpt lat="50.691561" lon="4.550922"><time>2026-05-08T04:29:48Z</time></trkpt>
<trkpt lat="50.691021" lon="4.551515"><time>2026-05-08T04:39:48Z</time></trkpt>
<trkpt lat="50.689759" lon="4.552791"><time>2026-05-08T04:49:48Z</time></trkpt>
<trkpt lat="50.689292" lon="4.553263"><time>2026-05-08T04:59:48Z</time></trkpt>
</trkseg>
</trk>
<trk>
<name>bwvlmL917</name>
<cmt>v</cmt>
<desc>Limal Chemin n°L917 </desc>
<link href="https://chemins.be/limal/chemin/L917"/><trkseg>
<trkpt lat="50.706685" lon="4.570785"><time>2026-05-08T03:59:48Z</time></trkpt>
<trkpt lat="50.706427" lon="4.569497"><time>2026-05-08T04:09:48Z</time></trkpt>
<trkpt lat="50.706970" lon="4.567512"><time>2026-05-08T04:19:48Z</time></trkpt>
<trkpt lat="50.706834" lon="4.566466"><time>2026-05-08T04:29:48Z</time></trkpt>
<trkpt lat="50.706610" lon="4.565930"><time>2026-05-08T04:39:48Z</time></trkpt>
<trkpt lat="50.705856" lon="4.565152"><time>2026-05-08T04:49:48Z</time></trkpt>
<trkpt lat="50.705516" lon="4.564669"><time>2026-05-08T04:59:48Z</time></trkpt>
<trkpt lat="50.705407" lon="4.562813"><time>2026-05-08T05:09:48Z</time></trkpt>
<trkpt lat="50.704945" lon="4.561472"><time>2026-05-08T05:19:48Z</time></trkpt>
<trkpt lat="50.704838" lon="4.559958"><time>2026-05-08T05:29:48Z</time></trkpt>
<trkpt lat="50.704771" lon="4.559355"><time>2026-05-08T05:39:48Z</time></trkpt>
</trkseg>
</trk>
</gpx>